<?xml version="1.0" encoding="UTF-8" standalone="no" ?>
<gpx xmlns="http://www.topografix.com/GPX/1/1" xmlns:xsi="http://www.w3.org/2001/XMLSchema-instance" xsi:schemaLocation="http://www.topografix.com/GPX/1/1 http://www.topografix.com/GPX/1/1/gpx.xsd" version="1.1" creator="VisuGPX - https://www.visugpx.com">
  <metadata>
    <name>Boucle Chehéry-Fresnois-StAignan</name>
    <desc><![CDATA[Parcours facile
Boucle de 2h00 en vitesse moyenne de 11 km/h]]></desc>
  </metadata>
  <trk>
    <name><![CDATA[Sequence 1]]></name>
    <trkseg>
      <trkpt lat="49.64334" lon="4.8754">
        <ele>152</ele>
        <time>2014-08-23T13:06:42Z</time>
      </trkpt>
      <trkpt lat="49.64334" lon="4.8754">
        <ele>152</ele>
        <time>2014-08-23T13:06:52Z</time>
      </trkpt>
      <trkpt lat="49.64334" lon="4.8754">
        <ele>152</ele>
        <time>2014-08-23T13:06:54Z</time>
      </trkpt>
      <trkpt lat="49.64335" lon="4.87539">
        <ele>152</ele>
        <time>2014-08-23T13:07:00Z</time>
      </trkpt>
      <trkpt lat="49.64337" lon="4.87535">
        <ele>154</ele>
        <time>2014-08-23T13:07:06Z</time>
      </trkpt>
      <trkpt lat="49.64352" lon="4.87523">
        <ele>157</ele>
        <time>2014-08-23T13:07:12Z</time>
      </trkpt>
      <trkpt lat="49.64353" lon="4.87522">
        <ele>158</ele>
        <time>2014-08-23T13:07:18Z</time>
      </trkpt>
      <trkpt lat="49.64354" lon="4.87521">
        <ele>158</ele>
        <time>2014-08-23T13:07:24Z</time>
      </trkpt>
      <trkpt lat="49.64356" lon="4.8752">
        <ele>159</ele>
        <time>2014-08-23T13:07:34Z</time>
      </trkpt>
      <trkpt lat="49.64356" lon="4.87521">
        <ele>158</ele>
        <time>2014-08-23T13:07:36Z</time>
      </trkpt>
      <trkpt lat="49.64357" lon="4.87512">
        <ele>159</ele>
        <time>2014-08-23T13:07:44Z</time>
      </trkpt>
      <trkpt lat="49.64345" lon="4.87491">
        <ele>159</ele>
        <time>2014-08-23T13:07:50Z</time>
      </trkpt>
      <trkpt lat="49.64334" lon="4.8748">
        <ele>159</ele>
        <time>2014-08-23T13:07:54Z</time>
      </trkpt>
      <trkpt lat="49.64327" lon="4.87494">
        <ele>162</ele>
        <time>2014-08-23T13:08:01Z</time>
      </trkpt>
      <trkpt lat="49.64332" lon="4.87519">
        <ele>163</ele>
        <time>2014-08-23T13:08:06Z</time>
      </trkpt>
      <trkpt lat="49.64331" lon="4.87555">
        <ele>166</ele>
        <time>2014-08-23T13:08:16Z</time>
      </trkpt>
      <trkpt lat="49.64329" lon="4.87561">
        <ele>167</ele>
        <time>2014-08-23T13:08:18Z</time>
      </trkpt>
      <trkpt lat="49.64322" lon="4.87578">
        <ele>168</ele>
        <time>2014-08-23T13:08:24Z</time>
      </trkpt>
      <trkpt lat="49.64316" lon="4.87592">
        <ele>172</ele>
        <time>2014-08-23T13:08:30Z</time>
      </trkpt>
      <trkpt lat="49.64305" lon="4.87602">
        <ele>175</ele>
        <time>2014-08-23T13:08:37Z</time>
      </trkpt>
      <trkpt lat="49.64296" lon="4.8761">
        <ele>174</ele>
        <time>2014-08-23T13:08:44Z</time>
      </trkpt>
      <trkpt lat="49.64287" lon="4.87618">
        <ele>176</ele>
        <time>2014-08-23T13:08:48Z</time>
      </trkpt>
      <trkpt lat="49.64277" lon="4.87626">
        <ele>178</ele>
        <time>2014-08-23T13:08:54Z</time>
      </trkpt>
      <trkpt lat="49.64267" lon="4.87634">
        <ele>179</ele>
        <time>2014-08-23T13:09:00Z</time>
      </trkpt>
      <trkpt lat="49.64257" lon="4.87643">
        <ele>182</ele>
        <time>2014-08-23T13:09:06Z</time>
      </trkpt>
      <trkpt lat="49.64244" lon="4.87658">
        <ele>184</ele>
        <time>2014-08-23T13:09:15Z</time>
      </trkpt>
      <trkpt lat="49.64234" lon="4.87665">
        <ele>186</ele>
        <time>2014-08-23T13:09:21Z</time>
      </trkpt>
      <trkpt lat="49.64229" lon="4.87667">
        <ele>188</ele>
        <time>2014-08-23T13:09:24Z</time>
      </trkpt>
      <trkpt lat="49.64215" lon="4.87675">
        <ele>189</ele>
        <time>2014-08-23T13:09:32Z</time>
      </trkpt>
      <trkpt lat="49.64203" lon="4.87683">
        <ele>191</ele>
        <time>2014-08-23T13:09:38Z</time>
      </trkpt>
      <trkpt lat="49.64195" lon="4.87689">
        <ele>190</ele>
        <time>2014-08-23T13:09:42Z</time>
      </trkpt>
      <trkpt lat="49.64183" lon="4.87699">
        <ele>191</ele>
        <time>2014-08-23T13:09:48Z</time>
      </trkpt>
      <trkpt lat="49.64169" lon="4.87707">
        <ele>192</ele>
        <time>2014-08-23T13:09:55Z</time>
      </trkpt>
      <trkpt lat="49.64161" lon="4.87711">
        <ele>192</ele>
        <time>2014-08-23T13:10:00Z</time>
      </trkpt>
      <trkpt lat="49.64151" lon="4.87717">
        <ele>193</ele>
        <time>2014-08-23T13:10:06Z</time>
      </trkpt>
      <trkpt lat="49.64134" lon="4.87721">
        <ele>196</ele>
        <time>2014-08-23T13:10:16Z</time>
      </trkpt>
      <trkpt lat="49.64126" lon="4.87725">
        <ele>198</ele>
        <time>2014-08-23T13:10:21Z</time>
      </trkpt>
      <trkpt lat="49.64122" lon="4.87725">
        <ele>198</ele>
        <time>2014-08-23T13:10:24Z</time>
      </trkpt>
      <trkpt lat="49.64112" lon="4.87727">
        <ele>198</ele>
        <time>2014-08-23T13:10:30Z</time>
      </trkpt>
      <trkpt lat="49.64106" lon="4.8773">
        <ele>202</ele>
        <time>2014-08-23T13:10:38Z</time>
      </trkpt>
      <trkpt lat="49.64103" lon="4.87732">
        <ele>204</ele>
        <time>2014-08-23T13:10:42Z</time>
      </trkpt>
      <trkpt lat="49.64094" lon="4.8774">
        <ele>212</ele>
        <time>2014-08-23T13:10:53Z</time>
      </trkpt>
      <trkpt lat="49.64092" lon="4.8774">
        <ele>212</ele>
        <time>2014-08-23T13:10:54Z</time>
      </trkpt>
      <trkpt lat="49.64085" lon="4.87745">
        <ele>214</ele>
        <time>2014-08-23T13:11:00Z</time>
      </trkpt>
      <trkpt lat="49.6408" lon="4.87753">
        <ele>219</ele>
        <time>2014-08-23T13:11:08Z</time>
      </trkpt>
      <trkpt lat="49.64077" lon="4.87762">
        <ele>222</ele>
        <time>2014-08-23T13:11:12Z</time>
      </trkpt>
      <trkpt lat="49.64073" lon="4.87776">
        <ele>221</ele>
        <time>2014-08-23T13:11:18Z</time>
      </trkpt>
      <trkpt lat="49.64075" lon="4.87792">
        <ele>223</ele>
        <time>2014-08-23T13:11:24Z</time>
      </trkpt>
      <trkpt lat="49.64078" lon="4.8781">
        <ele>226</ele>
        <time>2014-08-23T13:11:31Z</time>
      </trkpt>
      <trkpt lat="49.64079" lon="4.87826">
        <ele>229</ele>
        <time>2014-08-23T13:11:38Z</time>
      </trkpt>
      <trkpt lat="49.6408" lon="4.87836">
        <ele>229</ele>
        <time>2014-08-23T13:11:42Z</time>
      </trkpt>
      <trkpt lat="49.64081" lon="4.87856">
        <ele>233</ele>
        <time>2014-08-23T13:11:50Z</time>
      </trkpt>
      <trkpt lat="49.64081" lon="4.87868">
        <ele>235</ele>
        <time>2014-08-23T13:11:55Z</time>
      </trkpt>
      <trkpt lat="49.64082" lon="4.8788">
        <ele>235</ele>
        <time>2014-08-23T13:12:00Z</time>
      </trkpt>
      <trkpt lat="49.64083" lon="4.87894">
        <ele>238</ele>
        <time>2014-08-23T13:12:06Z</time>
      </trkpt>
      <trkpt lat="49.64082" lon="4.87909">
        <ele>239</ele>
        <time>2014-08-23T13:12:12Z</time>
      </trkpt>
      <trkpt lat="49.64086" lon="4.87923">
        <ele>240</ele>
        <time>2014-08-23T13:12:18Z</time>
      </trkpt>
      <trkpt lat="49.64086" lon="4.87939">
        <ele>243</ele>
        <time>2014-08-23T13:12:24Z</time>
      </trkpt>
      <trkpt lat="49.64085" lon="4.87954">
        <ele>243</ele>
        <time>2014-08-23T13:12:30Z</time>
      </trkpt>
      <trkpt lat="49.64084" lon="4.87969">
        <ele>246</ele>
        <time>2014-08-23T13:12:36Z</time>
      </trkpt>
      <trkpt lat="49.64082" lon="4.87989">
        <ele>245</ele>
        <time>2014-08-23T13:12:44Z</time>
      </trkpt>
      <trkpt lat="49.64077" lon="4.88009">
        <ele>246</ele>
        <time>2014-08-23T13:12:52Z</time>
      </trkpt>
      <trkpt lat="49.64076" lon="4.88014">
        <ele>247</ele>
        <time>2014-08-23T13:12:54Z</time>
      </trkpt>
      <trkpt lat="49.64072" lon="4.8803">
        <ele>249</ele>
        <time>2014-08-23T13:13:00Z</time>
      </trkpt>
      <trkpt lat="49.64069" lon="4.88046">
        <ele>250</ele>
        <time>2014-08-23T13:13:06Z</time>
      </trkpt>
      <trkpt lat="49.64065" lon="4.88061">
        <ele>252</ele>
        <time>2014-08-23T13:13:12Z</time>
      </trkpt>
      <trkpt lat="49.64061" lon="4.88076">
        <ele>254</ele>
        <time>2014-08-23T13:13:18Z</time>
      </trkpt>
      <trkpt lat="49.64056" lon="4.88093">
        <ele>254</ele>
        <time>2014-08-23T13:13:25Z</time>
      </trkpt>
      <trkpt lat="49.64051" lon="4.8811">
        <ele>254</ele>
        <time>2014-08-23T13:13:32Z</time>
      </trkpt>
      <trkpt lat="49.64045" lon="4.8812">
        <ele>256</ele>
        <time>2014-08-23T13:13:37Z</time>
      </trkpt>
      <trkpt lat="49.64035" lon="4.88142">
        <ele>258</ele>
        <time>2014-08-23T13:13:46Z</time>
      </trkpt>
      <trkpt lat="49.64032" lon="4.88146">
        <ele>259</ele>
        <time>2014-08-23T13:13:48Z</time>
      </trkpt>
      <trkpt lat="49.64021" lon="4.88159">
        <ele>260</ele>
        <time>2014-08-23T13:13:55Z</time>
      </trkpt>
      <trkpt lat="49.64016" lon="4.88175">
        <ele>262</ele>
        <time>2014-08-23T13:14:02Z</time>
      </trkpt>
      <trkpt lat="49.64018" lon="4.88176">
        <ele>261</ele>
        <time>2014-08-23T13:14:06Z</time>
      </trkpt>
      <trkpt lat="49.64019" lon="4.88176">
        <ele>261</ele>
        <time>2014-08-23T13:14:12Z</time>
      </trkpt>
      <trkpt lat="49.64019" lon="4.88176">
        <ele>261</ele>
        <time>2014-08-23T13:14:18Z</time>
      </trkpt>
      <trkpt lat="49.64019" lon="4.88176">
        <ele>261</ele>
        <time>2014-08-23T13:14:24Z</time>
      </trkpt>
      <trkpt lat="49.64019" lon="4.88176">
        <ele>261</ele>
        <time>2014-08-23T13:14:30Z</time>
      </trkpt>
      <trkpt lat="49.64019" lon="4.88176">
        <ele>261</ele>
        <time>2014-08-23T13:14:36Z</time>
      </trkpt>
      <trkpt lat="49.64019" lon="4.88176">
        <ele>261</ele>
        <time>2014-08-23T13:14:42Z</time>
      </trkpt>
      <trkpt lat="49.64019" lon="4.88177">
        <ele>261</ele>
        <time>2014-08-23T13:14:50Z</time>
      </trkpt>
      <trkpt lat="49.64019" lon="4.88177">
        <ele>261</ele>
        <time>2014-08-23T13:14:56Z</time>
      </trkpt>
      <trkpt lat="49.64019" lon="4.88178">
        <ele>261</ele>
        <time>2014-08-23T13:15:01Z</time>
      </trkpt>
      <trkpt lat="49.64019" lon="4.88178">
        <ele>260</ele>
        <time>2014-08-23T13:15:06Z</time>
      </trkpt>
      <trkpt lat="49.64028" lon="4.88191">
        <ele>263</ele>
        <time>2014-08-23T13:15:12Z</time>
      </trkpt>
      <trkpt lat="49.6404" lon="4.88208">
        <ele>264</ele>
        <time>2014-08-23T13:15:18Z</time>
      </trkpt>
      <trkpt lat="49.64057" lon="4.88237">
        <ele>263</ele>
        <time>2014-08-23T13:15:27Z</time>
      </trkpt>
      <trkpt lat="49.64063" lon="4.88247">
        <ele>263</ele>
        <time>2014-08-23T13:15:30Z</time>
      </trkpt>
      <trkpt lat="49.64075" lon="4.88265">
        <ele>264</ele>
        <time>2014-08-23T13:15:36Z</time>
      </trkpt>
      <trkpt lat="49.64085" lon="4.88282">
        <ele>265</ele>
        <time>2014-08-23T13:15:42Z</time>
      </trkpt>
      <trkpt lat="49.64097" lon="4.88302">
        <ele>266</ele>
        <time>2014-08-23T13:15:49Z</time>
      </trkpt>
      <trkpt lat="49.64104" lon="4.88318">
        <ele>267</ele>
        <time>2014-08-23T13:15:54Z</time>
      </trkpt>
      <trkpt lat="49.64115" lon="4.88337">
        <ele>268</ele>
        <time>2014-08-23T13:16:00Z</time>
      </trkpt>
      <trkpt lat="49.64133" lon="4.8837">
        <ele>267</ele>
        <time>2014-08-23T13:16:10Z</time>
      </trkpt>
      <trkpt lat="49.64137" lon="4.88376">
        <ele>266</ele>
        <time>2014-08-23T13:16:12Z</time>
      </trkpt>
      <trkpt lat="49.6415" lon="4.88398">
        <ele>267</ele>
        <time>2014-08-23T13:16:19Z</time>
      </trkpt>
      <trkpt lat="49.64159" lon="4.88414">
        <ele>268</ele>
        <time>2014-08-23T13:16:24Z</time>
      </trkpt>
      <trkpt lat="49.64171" lon="4.88434">
        <ele>268</ele>
        <time>2014-08-23T13:16:30Z</time>
      </trkpt>
      <trkpt lat="49.64182" lon="4.88453">
        <ele>269</ele>
        <time>2014-08-23T13:16:36Z</time>
      </trkpt>
      <trkpt lat="49.64194" lon="4.88473">
        <ele>269</ele>
        <time>2014-08-23T13:16:42Z</time>
      </trkpt>
      <trkpt lat="49.64191" lon="4.88511">
        <ele>272</ele>
        <time>2014-08-23T13:16:52Z</time>
      </trkpt>
      <trkpt lat="49.64188" lon="4.88518">
        <ele>272</ele>
        <time>2014-08-23T13:16:54Z</time>
      </trkpt>
      <trkpt lat="49.64178" lon="4.88545">
        <ele>273</ele>
        <time>2014-08-23T13:17:02Z</time>
      </trkpt>
      <trkpt lat="49.64169" lon="4.88569">
        <ele>273</ele>
        <time>2014-08-23T13:17:09Z</time>
      </trkpt>
      <trkpt lat="49.64161" lon="4.88591">
        <ele>275</ele>
        <time>2014-08-23T13:17:16Z</time>
      </trkpt>
      <trkpt lat="49.64158" lon="4.88598">
        <ele>275</ele>
        <time>2014-08-23T13:17:18Z</time>
      </trkpt>
      <trkpt lat="49.6415" lon="4.88623">
        <ele>278</ele>
        <time>2014-08-23T13:17:25Z</time>
      </trkpt>
      <trkpt lat="49.64144" lon="4.88642">
        <ele>278</ele>
        <time>2014-08-23T13:17:30Z</time>
      </trkpt>
      <trkpt lat="49.64137" lon="4.88665">
        <ele>279</ele>
        <time>2014-08-23T13:17:36Z</time>
      </trkpt>
      <trkpt lat="49.64129" lon="4.88691">
        <ele>280</ele>
        <time>2014-08-23T13:17:43Z</time>
      </trkpt>
      <trkpt lat="49.64125" lon="4.88711">
        <ele>281</ele>
        <time>2014-08-23T13:17:48Z</time>
      </trkpt>
      <trkpt lat="49.64122" lon="4.88736">
        <ele>282</ele>
        <time>2014-08-23T13:17:54Z</time>
      </trkpt>
      <trkpt lat="49.64133" lon="4.88745">
        <ele>283</ele>
        <time>2014-08-23T13:18:00Z</time>
      </trkpt>
      <trkpt lat="49.64144" lon="4.88753">
        <ele>283</ele>
        <time>2014-08-23T13:18:06Z</time>
      </trkpt>
      <trkpt lat="49.64152" lon="4.88763">
        <ele>284</ele>
        <time>2014-08-23T13:18:13Z</time>
      </trkpt>
      <trkpt lat="49.64162" lon="4.88772">
        <ele>289</ele>
        <time>2014-08-23T13:18:20Z</time>
      </trkpt>
      <trkpt lat="49.64165" lon="4.8878">
        <ele>294</ele>
        <time>2014-08-23T13:18:24Z</time>
      </trkpt>
      <trkpt lat="49.64172" lon="4.88794">
        <ele>296</ele>
        <time>2014-08-23T13:18:30Z</time>
      </trkpt>
      <trkpt lat="49.64183" lon="4.88808">
        <ele>300</ele>
        <time>2014-08-23T13:18:36Z</time>
      </trkpt>
      <trkpt lat="49.64192" lon="4.88822">
        <ele>304</ele>
        <time>2014-08-23T13:18:42Z</time>
      </trkpt>
      <trkpt lat="49.64211" lon="4.88844">
        <ele>304</ele>
        <time>2014-08-23T13:18:50Z</time>
      </trkpt>
      <trkpt lat="49.64231" lon="4.88867">
        <ele>304</ele>
        <time>2014-08-23T13:18:58Z</time>
      </trkpt>
      <trkpt lat="49.64236" lon="4.88873">
        <ele>302</ele>
        <time>2014-08-23T13:19:00Z</time>
      </trkpt>
      <trkpt lat="49.64245" lon="4.88883">
        <ele>298</ele>
        <time>2014-08-23T13:19:06Z</time>
      </trkpt>
      <trkpt lat="49.6426" lon="4.88895">
        <ele>301</ele>
        <time>2014-08-23T13:19:12Z</time>
      </trkpt>
      <trkpt lat="49.64285" lon="4.88932">
        <ele>302</ele>
        <time>2014-08-23T13:19:21Z</time>
      </trkpt>
      <trkpt lat="49.64291" lon="4.88945">
        <ele>302</ele>
        <time>2014-08-23T13:19:24Z</time>
      </trkpt>
      <trkpt lat="49.64304" lon="4.88975">
        <ele>303</ele>
        <time>2014-08-23T13:19:30Z</time>
      </trkpt>
      <trkpt lat="49.64319" lon="4.89016">
        <ele>305</ele>
        <time>2014-08-23T13:19:39Z</time>
      </trkpt>
      <trkpt lat="49.64357" lon="4.89088">
        <ele>291</ele>
        <time>2014-08-23T13:19:50Z</time>
      </trkpt>
      <trkpt lat="49.64363" lon="4.89119">
        <ele>291</ele>
        <time>2014-08-23T13:19:58Z</time>
      </trkpt>
      <trkpt lat="49.64364" lon="4.89126">
        <ele>292</ele>
        <time>2014-08-23T13:20:00Z</time>
      </trkpt>
      <trkpt lat="49.64371" lon="4.89151">
        <ele>291</ele>
        <time>2014-08-23T13:20:06Z</time>
      </trkpt>
      <trkpt lat="49.64379" lon="4.89178">
        <ele>290</ele>
        <time>2014-08-23T13:20:12Z</time>
      </trkpt>
      <trkpt lat="49.64387" lon="4.89227">
        <ele>289</ele>
        <time>2014-08-23T13:20:22Z</time>
      </trkpt>
      <trkpt lat="49.64392" lon="4.8925">
        <ele>287</ele>
        <time>2014-08-23T13:20:27Z</time>
      </trkpt>
      <trkpt lat="49.64399" lon="4.8928">
        <ele>287</ele>
        <time>2014-08-23T13:20:34Z</time>
      </trkpt>
      <trkpt lat="49.644" lon="4.89289">
        <ele>287</ele>
        <time>2014-08-23T13:20:36Z</time>
      </trkpt>
      <trkpt lat="49.64404" lon="4.89317">
        <ele>287</ele>
        <time>2014-08-23T13:20:42Z</time>
      </trkpt>
      <trkpt lat="49.64406" lon="4.89344">
        <ele>287</ele>
        <time>2014-08-23T13:20:49Z</time>
      </trkpt>
      <trkpt lat="49.64402" lon="4.89364">
        <ele>291</ele>
        <time>2014-08-23T13:20:54Z</time>
      </trkpt>
      <trkpt lat="49.644" lon="4.89389">
        <ele>290</ele>
        <time>2014-08-23T13:21:00Z</time>
      </trkpt>
      <trkpt lat="49.64396" lon="4.89415">
        <ele>291</ele>
        <time>2014-08-23T13:21:06Z</time>
      </trkpt>
      <trkpt lat="49.64394" lon="4.8944">
        <ele>293</ele>
        <time>2014-08-23T13:21:12Z</time>
      </trkpt>
      <trkpt lat="49.64394" lon="4.89463">
        <ele>295</ele>
        <time>2014-08-23T13:21:18Z</time>
      </trkpt>
      <trkpt lat="49.64393" lon="4.89485">
        <ele>297</ele>
        <time>2014-08-23T13:21:24Z</time>
      </trkpt>
      <trkpt lat="49.64392" lon="4.89507">
        <ele>302</ele>
        <time>2014-08-23T13:21:30Z</time>
      </trkpt>
      <trkpt lat="49.64392" lon="4.89521">
        <ele>303</ele>
        <time>2014-08-23T13:21:36Z</time>
      </trkpt>
      <trkpt lat="49.64393" lon="4.89541">
        <ele>304</ele>
        <time>2014-08-23T13:21:42Z</time>
      </trkpt>
      <trkpt lat="49.64394" lon="4.89562">
        <ele>305</ele>
        <time>2014-08-23T13:21:48Z</time>
      </trkpt>
      <trkpt lat="49.644" lon="4.89592">
        <ele>314</ele>
        <time>2014-08-23T13:21:57Z</time>
      </trkpt>
      <trkpt lat="49.64401" lon="4.89604">
        <ele>315</ele>
        <time>2014-08-23T13:22:00Z</time>
      </trkpt>
      <trkpt lat="49.64402" lon="4.89628">
        <ele>316</ele>
        <time>2014-08-23T13:22:06Z</time>
      </trkpt>
      <trkpt lat="49.64404" lon="4.89656">
        <ele>321</ele>
        <time>2014-08-23T13:22:12Z</time>
      </trkpt>
      <trkpt lat="49.64408" lon="4.89677">
        <ele>322</ele>
        <time>2014-08-23T13:22:18Z</time>
      </trkpt>
      <trkpt lat="49.64409" lon="4.89698">
        <ele>325</ele>
        <time>2014-08-23T13:22:24Z</time>
      </trkpt>
      <trkpt lat="49.64407" lon="4.89719">
        <ele>321</ele>
        <time>2014-08-23T13:22:30Z</time>
      </trkpt>
      <trkpt lat="49.64404" lon="4.89741">
        <ele>321</ele>
        <time>2014-08-23T13:22:36Z</time>
      </trkpt>
      <trkpt lat="49.644" lon="4.89768">
        <ele>322</ele>
        <time>2014-08-23T13:22:42Z</time>
      </trkpt>
      <trkpt lat="49.64386" lon="4.89818">
        <ele>303</ele>
        <time>2014-08-23T13:22:51Z</time>
      </trkpt>
      <trkpt lat="49.64381" lon="4.89827">
        <ele>301</ele>
        <time>2014-08-23T13:22:58Z</time>
      </trkpt>
      <trkpt lat="49.6439" lon="4.89838">
        <ele>295</ele>
        <time>2014-08-23T13:23:02Z</time>
      </trkpt>
      <trkpt lat="49.64405" lon="4.89838">
        <ele>294</ele>
        <time>2014-08-23T13:23:06Z</time>
      </trkpt>
      <trkpt lat="49.64434" lon="4.89837">
        <ele>293</ele>
        <time>2014-08-23T13:23:14Z</time>
      </trkpt>
      <trkpt lat="49.64452" lon="4.89835">
        <ele>294</ele>
        <time>2014-08-23T13:23:20Z</time>
      </trkpt>
      <trkpt lat="49.64478" lon="4.89831">
        <ele>295</ele>
        <time>2014-08-23T13:23:29Z</time>
      </trkpt>
      <trkpt lat="49.64481" lon="4.89831">
        <ele>295</ele>
        <time>2014-08-23T13:23:30Z</time>
      </trkpt>
      <trkpt lat="49.64504" lon="4.89825">
        <ele>296</ele>
        <time>2014-08-23T13:23:38Z</time>
      </trkpt>
      <trkpt lat="49.64519" lon="4.8982">
        <ele>297</ele>
        <time>2014-08-23T13:23:43Z</time>
      </trkpt>
      <trkpt lat="49.64542" lon="4.89816">
        <ele>296</ele>
        <time>2014-08-23T13:23:51Z</time>
      </trkpt>
      <trkpt lat="49.64554" lon="4.89815">
        <ele>296</ele>
        <time>2014-08-23T13:23:55Z</time>
      </trkpt>
      <trkpt lat="49.64569" lon="4.89814">
        <ele>295</ele>
        <time>2014-08-23T13:24:00Z</time>
      </trkpt>
      <trkpt lat="49.64588" lon="4.89813">
        <ele>294</ele>
        <time>2014-08-23T13:24:06Z</time>
      </trkpt>
      <trkpt lat="49.64612" lon="4.89812">
        <ele>296</ele>
        <time>2014-08-23T13:24:14Z</time>
      </trkpt>
      <trkpt lat="49.64624" lon="4.8981">
        <ele>295</ele>
        <time>2014-08-23T13:24:18Z</time>
      </trkpt>
      <trkpt lat="49.64645" lon="4.89812">
        <ele>294</ele>
        <time>2014-08-23T13:24:25Z</time>
      </trkpt>
      <trkpt lat="49.6467" lon="4.89804">
        <ele>294</ele>
        <time>2014-08-23T13:24:34Z</time>
      </trkpt>
      <trkpt lat="49.64682" lon="4.89801">
        <ele>296</ele>
        <time>2014-08-23T13:24:39Z</time>
      </trkpt>
      <trkpt lat="49.6469" lon="4.89801">
        <ele>296</ele>
        <time>2014-08-23T13:24:42Z</time>
      </trkpt>
      <trkpt lat="49.64706" lon="4.89802">
        <ele>295</ele>
        <time>2014-08-23T13:24:48Z</time>
      </trkpt>
      <trkpt lat="49.64724" lon="4.89803">
        <ele>293</ele>
        <time>2014-08-23T13:24:54Z</time>
      </trkpt>
      <trkpt lat="49.64744" lon="4.89805">
        <ele>292</ele>
        <time>2014-08-23T13:25:00Z</time>
      </trkpt>
      <trkpt lat="49.64761" lon="4.89806">
        <ele>293</ele>
        <time>2014-08-23T13:25:06Z</time>
      </trkpt>
      <trkpt lat="49.6478" lon="4.89806">
        <ele>295</ele>
        <time>2014-08-23T13:25:13Z</time>
      </trkpt>
      <trkpt lat="49.64791" lon="4.89808">
        <ele>294</ele>
        <time>2014-08-23T13:25:18Z</time>
      </trkpt>
      <trkpt lat="49.64806" lon="4.89809">
        <ele>297</ele>
        <time>2014-08-23T13:25:24Z</time>
      </trkpt>
      <trkpt lat="49.64822" lon="4.89811">
        <ele>298</ele>
        <time>2014-08-23T13:25:30Z</time>
      </trkpt>
      <trkpt lat="49.64846" lon="4.89812">
        <ele>297</ele>
        <time>2014-08-23T13:25:38Z</time>
      </trkpt>
      <trkpt lat="49.64859" lon="4.89815">
        <ele>298</ele>
        <time>2014-08-23T13:25:42Z</time>
      </trkpt>
      <trkpt lat="49.64891" lon="4.89816">
        <ele>300</ele>
        <time>2014-08-23T13:25:52Z</time>
      </trkpt>
      <trkpt lat="49.64897" lon="4.89816">
        <ele>299</ele>
        <time>2014-08-23T13:25:54Z</time>
      </trkpt>
      <trkpt lat="49.64917" lon="4.89814">
        <ele>297</ele>
        <time>2014-08-23T13:26:00Z</time>
      </trkpt>
      <trkpt lat="49.64936" lon="4.89813">
        <ele>297</ele>
        <time>2014-08-23T13:26:06Z</time>
      </trkpt>
      <trkpt lat="49.64955" lon="4.89814">
        <ele>296</ele>
        <time>2014-08-23T13:26:12Z</time>
      </trkpt>
      <trkpt lat="49.64981" lon="4.8982">
        <ele>296</ele>
        <time>2014-08-23T13:26:21Z</time>
      </trkpt>
      <trkpt lat="49.64993" lon="4.89824">
        <ele>294</ele>
        <time>2014-08-23T13:26:25Z</time>
      </trkpt>
      <trkpt lat="49.65009" lon="4.89828">
        <ele>292</ele>
        <time>2014-08-23T13:26:30Z</time>
      </trkpt>
      <trkpt lat="49.65037" lon="4.89839">
        <ele>293</ele>
        <time>2014-08-23T13:26:40Z</time>
      </trkpt>
      <trkpt lat="49.65048" lon="4.89841">
        <ele>293</ele>
        <time>2014-08-23T13:26:44Z</time>
      </trkpt>
      <trkpt lat="49.65059" lon="4.89844">
        <ele>294</ele>
        <time>2014-08-23T13:26:48Z</time>
      </trkpt>
      <trkpt lat="49.6508" lon="4.89851">
        <ele>294</ele>
        <time>2014-08-23T13:26:55Z</time>
      </trkpt>
      <trkpt lat="49.65095" lon="4.89855">
        <ele>293</ele>
        <time>2014-08-23T13:27:00Z</time>
      </trkpt>
      <trkpt lat="49.65119" lon="4.89862">
        <ele>292</ele>
        <time>2014-08-23T13:27:08Z</time>
      </trkpt>
      <trkpt lat="49.65131" lon="4.89864">
        <ele>292</ele>
        <time>2014-08-23T13:27:12Z</time>
      </trkpt>
      <trkpt lat="49.65163" lon="4.89869">
        <ele>293</ele>
        <time>2014-08-23T13:27:23Z</time>
      </trkpt>
      <trkpt lat="49.65166" lon="4.89869">
        <ele>294</ele>
        <time>2014-08-23T13:27:24Z</time>
      </trkpt>
      <trkpt lat="49.65192" lon="4.89873">
        <ele>294</ele>
        <time>2014-08-23T13:27:33Z</time>
      </trkpt>
      <trkpt lat="49.65206" lon="4.89877">
        <ele>294</ele>
        <time>2014-08-23T13:27:38Z</time>
      </trkpt>
      <trkpt lat="49.65219" lon="4.89885">
        <ele>292</ele>
        <time>2014-08-23T13:27:43Z</time>
      </trkpt>
      <trkpt lat="49.65226" lon="4.89903">
        <ele>292</ele>
        <time>2014-08-23T13:27:48Z</time>
      </trkpt>
      <trkpt lat="49.65224" lon="4.89931">
        <ele>295</ele>
        <time>2014-08-23T13:27:56Z</time>
      </trkpt>
      <trkpt lat="49.65237" lon="4.89952">
        <ele>296</ele>
        <time>2014-08-23T13:28:03Z</time>
      </trkpt>
      <trkpt lat="49.65242" lon="4.89962">
        <ele>296</ele>
        <time>2014-08-23T13:28:06Z</time>
      </trkpt>
      <trkpt lat="49.65252" lon="4.89984">
        <ele>298</ele>
        <time>2014-08-23T13:28:12Z</time>
      </trkpt>
      <trkpt lat="49.65261" lon="4.90005">
        <ele>298</ele>
        <time>2014-08-23T13:28:18Z</time>
      </trkpt>
      <trkpt lat="49.65272" lon="4.90032">
        <ele>300</ele>
        <time>2014-08-23T13:28:26Z</time>
      </trkpt>
      <trkpt lat="49.65281" lon="4.90051">
        <ele>301</ele>
        <time>2014-08-23T13:28:32Z</time>
      </trkpt>
      <trkpt lat="49.65287" lon="4.90068">
        <ele>302</ele>
        <time>2014-08-23T13:28:37Z</time>
      </trkpt>
      <trkpt lat="49.65299" lon="4.90097">
        <ele>302</ele>
        <time>2014-08-23T13:28:46Z</time>
      </trkpt>
      <trkpt lat="49.65306" lon="4.90111">
        <ele>303</ele>
        <time>2014-08-23T13:28:51Z</time>
      </trkpt>
      <trkpt lat="49.65317" lon="4.90137">
        <ele>303</ele>
        <time>2014-08-23T13:28:59Z</time>
      </trkpt>
      <trkpt lat="49.65318" lon="4.90141">
        <ele>303</ele>
        <time>2014-08-23T13:29:00Z</time>
      </trkpt>
      <trkpt lat="49.65328" lon="4.90164">
        <ele>305</ele>
        <time>2014-08-23T13:29:07Z</time>
      </trkpt>
      <trkpt lat="49.65333" lon="4.9018">
        <ele>307</ele>
        <time>2014-08-23T13:29:12Z</time>
      </trkpt>
      <trkpt lat="49.65341" lon="4.90199">
        <ele>308</ele>
        <time>2014-08-23T13:29:18Z</time>
      </trkpt>
      <trkpt lat="49.65357" lon="4.90231">
        <ele>309</ele>
        <time>2014-08-23T13:29:28Z</time>
      </trkpt>
      <trkpt lat="49.6536" lon="4.90238">
        <ele>308</ele>
        <time>2014-08-23T13:29:30Z</time>
      </trkpt>
      <trkpt lat="49.65368" lon="4.9026">
        <ele>308</ele>
        <time>2014-08-23T13:29:36Z</time>
      </trkpt>
      <trkpt lat="49.65378" lon="4.90282">
        <ele>309</ele>
        <time>2014-08-23T13:29:42Z</time>
      </trkpt>
      <trkpt lat="49.65387" lon="4.90307">
        <ele>309</ele>
        <time>2014-08-23T13:29:49Z</time>
      </trkpt>
      <trkpt lat="49.65402" lon="4.90341">
        <ele>311</ele>
        <time>2014-08-23T13:29:59Z</time>
      </trkpt>
      <trkpt lat="49.65403" lon="4.90345">
        <ele>311</ele>
        <time>2014-08-23T13:30:00Z</time>
      </trkpt>
      <trkpt lat="49.6541" lon="4.90368">
        <ele>311</ele>
        <time>2014-08-23T13:30:06Z</time>
      </trkpt>
      <trkpt lat="49.65419" lon="4.90393">
        <ele>309</ele>
        <time>2014-08-23T13:30:12Z</time>
      </trkpt>
      <trkpt lat="49.65432" lon="4.90419">
        <ele>310</ele>
        <time>2014-08-23T13:30:18Z</time>
      </trkpt>
      <trkpt lat="49.65441" lon="4.90439">
        <ele>309</ele>
        <time>2014-08-23T13:30:24Z</time>
      </trkpt>
      <trkpt lat="49.65454" lon="4.90466">
        <ele>306</ele>
        <time>2014-08-23T13:30:31Z</time>
      </trkpt>
      <trkpt lat="49.65465" lon="4.90483">
        <ele>306</ele>
        <time>2014-08-23T13:30:36Z</time>
      </trkpt>
      <trkpt lat="49.65479" lon="4.90507">
        <ele>303</ele>
        <time>2014-08-23T13:30:43Z</time>
      </trkpt>
      <trkpt lat="49.65492" lon="4.90527">
        <ele>301</ele>
        <time>2014-08-23T13:30:49Z</time>
      </trkpt>
      <trkpt lat="49.65504" lon="4.90541">
        <ele>300</ele>
        <time>2014-08-23T13:30:54Z</time>
      </trkpt>
      <trkpt lat="49.65517" lon="4.90556">
        <ele>298</ele>
        <time>2014-08-23T13:31:00Z</time>
      </trkpt>
      <trkpt lat="49.65531" lon="4.90572">
        <ele>296</ele>
        <time>2014-08-23T13:31:06Z</time>
      </trkpt>
      <trkpt lat="49.65546" lon="4.90589">
        <ele>295</ele>
        <time>2014-08-23T13:31:12Z</time>
      </trkpt>
      <trkpt lat="49.65563" lon="4.90606">
        <ele>292</ele>
        <time>2014-08-23T13:31:18Z</time>
      </trkpt>
      <trkpt lat="49.65578" lon="4.90623">
        <ele>291</ele>
        <time>2014-08-23T13:31:24Z</time>
      </trkpt>
      <trkpt lat="49.65593" lon="4.9064">
        <ele>291</ele>
        <time>2014-08-23T13:31:30Z</time>
      </trkpt>
      <trkpt lat="49.65607" lon="4.90656">
        <ele>289</ele>
        <time>2014-08-23T13:31:36Z</time>
      </trkpt>
      <trkpt lat="49.65622" lon="4.90671">
        <ele>287</ele>
        <time>2014-08-23T13:31:42Z</time>
      </trkpt>
      <trkpt lat="49.65637" lon="4.90686">
        <ele>285</ele>
        <time>2014-08-23T13:31:48Z</time>
      </trkpt>
      <trkpt lat="49.65656" lon="4.90692">
        <ele>283</ele>
        <time>2014-08-23T13:31:54Z</time>
      </trkpt>
      <trkpt lat="49.65675" lon="4.90692">
        <ele>282</ele>
        <time>2014-08-23T13:32:00Z</time>
      </trkpt>
      <trkpt lat="49.65709" lon="4.90691">
        <ele>283</ele>
        <time>2014-08-23T13:32:11Z</time>
      </trkpt>
      <trkpt lat="49.65718" lon="4.9069">
        <ele>283</ele>
        <time>2014-08-23T13:32:14Z</time>
      </trkpt>
      <trkpt lat="49.65731" lon="4.9069">
        <ele>283</ele>
        <time>2014-08-23T13:32:18Z</time>
      </trkpt>
      <trkpt lat="49.65749" lon="4.90698">
        <ele>283</ele>
        <time>2014-08-23T13:32:24Z</time>
      </trkpt>
      <trkpt lat="49.65762" lon="4.90715">
        <ele>283</ele>
        <time>2014-08-23T13:32:30Z</time>
      </trkpt>
      <trkpt lat="49.65776" lon="4.90754">
        <ele>285</ele>
        <time>2014-08-23T13:32:40Z</time>
      </trkpt>
      <trkpt lat="49.65783" lon="4.90771">
        <ele>284</ele>
        <time>2014-08-23T13:32:44Z</time>
      </trkpt>
      <trkpt lat="49.65788" lon="4.90787">
        <ele>286</ele>
        <time>2014-08-23T13:32:48Z</time>
      </trkpt>
      <trkpt lat="49.65796" lon="4.9081">
        <ele>288</ele>
        <time>2014-08-23T13:32:55Z</time>
      </trkpt>
      <trkpt lat="49.65802" lon="4.90827">
        <ele>289</ele>
        <time>2014-08-23T13:33:00Z</time>
      </trkpt>
      <trkpt lat="49.6581" lon="4.90856">
        <ele>291</ele>
        <time>2014-08-23T13:33:08Z</time>
      </trkpt>
      <trkpt lat="49.65815" lon="4.90873">
        <ele>292</ele>
        <time>2014-08-23T13:33:13Z</time>
      </trkpt>
      <trkpt lat="49.65824" lon="4.90896">
        <ele>294</ele>
        <time>2014-08-23T13:33:20Z</time>
      </trkpt>
      <trkpt lat="49.6583" lon="4.90915">
        <ele>295</ele>
        <time>2014-08-23T13:33:26Z</time>
      </trkpt>
      <trkpt lat="49.65837" lon="4.90936">
        <ele>296</ele>
        <time>2014-08-23T13:33:32Z</time>
      </trkpt>
      <trkpt lat="49.65847" lon="4.90963">
        <ele>298</ele>
        <time>2014-08-23T13:33:40Z</time>
      </trkpt>
      <trkpt lat="49.65849" lon="4.9097">
        <ele>298</ele>
        <time>2014-08-23T13:33:42Z</time>
      </trkpt>
      <trkpt lat="49.65856" lon="4.90991">
        <ele>299</ele>
        <time>2014-08-23T13:33:48Z</time>
      </trkpt>
      <trkpt lat="49.65863" lon="4.91013">
        <ele>298</ele>
        <time>2014-08-23T13:33:54Z</time>
      </trkpt>
      <trkpt lat="49.65871" lon="4.91034">
        <ele>300</ele>
        <time>2014-08-23T13:34:00Z</time>
      </trkpt>
      <trkpt lat="49.65885" lon="4.91072">
        <ele>302</ele>
        <time>2014-08-23T13:34:11Z</time>
      </trkpt>
      <trkpt lat="49.65888" lon="4.91079">
        <ele>301</ele>
        <time>2014-08-23T13:34:13Z</time>
      </trkpt>
      <trkpt lat="49.65894" lon="4.91096">
        <ele>302</ele>
        <time>2014-08-23T13:34:18Z</time>
      </trkpt>
      <trkpt lat="49.65906" lon="4.91133">
        <ele>306</ele>
        <time>2014-08-23T13:34:29Z</time>
      </trkpt>
      <trkpt lat="49.65907" lon="4.91137">
        <ele>306</ele>
        <time>2014-08-23T13:34:30Z</time>
      </trkpt>
      <trkpt lat="49.65915" lon="4.91158">
        <ele>306</ele>
        <time>2014-08-23T13:34:36Z</time>
      </trkpt>
      <trkpt lat="49.65924" lon="4.91179">
        <ele>308</ele>
        <time>2014-08-23T13:34:42Z</time>
      </trkpt>
      <trkpt lat="49.65936" lon="4.9121">
        <ele>310</ele>
        <time>2014-08-23T13:34:51Z</time>
      </trkpt>
      <trkpt lat="49.65942" lon="4.91224">
        <ele>311</ele>
        <time>2014-08-23T13:34:55Z</time>
      </trkpt>
      <trkpt lat="49.65951" lon="4.91247">
        <ele>314</ele>
        <time>2014-08-23T13:35:02Z</time>
      </trkpt>
      <trkpt lat="49.65957" lon="4.91261">
        <ele>314</ele>
        <time>2014-08-23T13:35:06Z</time>
      </trkpt>
      <trkpt lat="49.65966" lon="4.91283">
        <ele>315</ele>
        <time>2014-08-23T13:35:12Z</time>
      </trkpt>
      <trkpt lat="49.65974" lon="4.91316">
        <ele>317</ele>
        <time>2014-08-23T13:35:20Z</time>
      </trkpt>
      <trkpt lat="49.65977" lon="4.91335">
        <ele>319</ele>
        <time>2014-08-23T13:35:25Z</time>
      </trkpt>
      <trkpt lat="49.65981" lon="4.91372">
        <ele>319</ele>
        <time>2014-08-23T13:35:34Z</time>
      </trkpt>
      <trkpt lat="49.65984" lon="4.91397">
        <ele>319</ele>
        <time>2014-08-23T13:35:40Z</time>
      </trkpt>
      <trkpt lat="49.65985" lon="4.91406">
        <ele>319</ele>
        <time>2014-08-23T13:35:42Z</time>
      </trkpt>
      <trkpt lat="49.65987" lon="4.91432">
        <ele>321</ele>
        <time>2014-08-23T13:35:48Z</time>
      </trkpt>
      <trkpt lat="49.65988" lon="4.91456">
        <ele>322</ele>
        <time>2014-08-23T13:35:54Z</time>
      </trkpt>
      <trkpt lat="49.6599" lon="4.91489">
        <ele>323</ele>
        <time>2014-08-23T13:36:02Z</time>
      </trkpt>
      <trkpt lat="49.65992" lon="4.91505">
        <ele>324</ele>
        <time>2014-08-23T13:36:06Z</time>
      </trkpt>
      <trkpt lat="49.65996" lon="4.9153">
        <ele>324</ele>
        <time>2014-08-23T13:36:12Z</time>
      </trkpt>
      <trkpt lat="49.66002" lon="4.91554">
        <ele>325</ele>
        <time>2014-08-23T13:36:18Z</time>
      </trkpt>
      <trkpt lat="49.66008" lon="4.91578">
        <ele>326</ele>
        <time>2014-08-23T13:36:24Z</time>
      </trkpt>
      <trkpt lat="49.66011" lon="4.91603">
        <ele>327</ele>
        <time>2014-08-23T13:36:30Z</time>
      </trkpt>
      <trkpt lat="49.66018" lon="4.91626">
        <ele>329</ele>
        <time>2014-08-23T13:36:36Z</time>
      </trkpt>
      <trkpt lat="49.66029" lon="4.91664">
        <ele>329</ele>
        <time>2014-08-23T13:36:45Z</time>
      </trkpt>
      <trkpt lat="49.66033" lon="4.91682">
        <ele>329</ele>
        <time>2014-08-23T13:36:49Z</time>
      </trkpt>
      <trkpt lat="49.66038" lon="4.91715">
        <ele>329</ele>
        <time>2014-08-23T13:36:56Z</time>
      </trkpt>
      <trkpt lat="49.66042" lon="4.91732">
        <ele>329</ele>
        <time>2014-08-23T13:37:00Z</time>
      </trkpt>
      <trkpt lat="49.66044" lon="4.9175">
        <ele>328</ele>
        <time>2014-08-23T13:37:08Z</time>
      </trkpt>
      <trkpt lat="49.66044" lon="4.91755">
        <ele>327</ele>
        <time>2014-08-23T13:37:13Z</time>
      </trkpt>
      <trkpt lat="49.66045" lon="4.91755">
        <ele>327</ele>
        <time>2014-08-23T13:37:18Z</time>
      </trkpt>
      <trkpt lat="49.66045" lon="4.91755">
        <ele>328</ele>
        <time>2014-08-23T13:37:24Z</time>
      </trkpt>
      <trkpt lat="49.66045" lon="4.91755">
        <ele>328</ele>
        <time>2014-08-23T13:37:30Z</time>
      </trkpt>
      <trkpt lat="49.66045" lon="4.91755">
        <ele>328</ele>
        <time>2014-08-23T13:37:36Z</time>
      </trkpt>
      <trkpt lat="49.66045" lon="4.91755">
        <ele>328</ele>
        <time>2014-08-23T13:37:42Z</time>
      </trkpt>
      <trkpt lat="49.66045" lon="4.91755">
        <ele>328</ele>
        <time>2014-08-23T13:37:48Z</time>
      </trkpt>
      <trkpt lat="49.66045" lon="4.91754">
        <ele>328</ele>
        <time>2014-08-23T13:37:54Z</time>
      </trkpt>
      <trkpt lat="49.66045" lon="4.91754">
        <ele>327</ele>
        <time>2014-08-23T13:38:00Z</time>
      </trkpt>
      <trkpt lat="49.66049" lon="4.91777">
        <ele>327</ele>
        <time>2014-08-23T13:38:11Z</time>
      </trkpt>
      <trkpt lat="49.6605" lon="4.91783">
        <ele>328</ele>
        <time>2014-08-23T13:38:12Z</time>
      </trkpt>
      <trkpt lat="49.66056" lon="4.91838">
        <ele>329</ele>
        <time>2014-08-23T13:38:22Z</time>
      </trkpt>
      <trkpt lat="49.66057" lon="4.91849">
        <ele>328</ele>
        <time>2014-08-23T13:38:24Z</time>
      </trkpt>
      <trkpt lat="49.66061" lon="4.91882">
        <ele>328</ele>
        <time>2014-08-23T13:38:30Z</time>
      </trkpt>
      <trkpt lat="49.66064" lon="4.91914">
        <ele>326</ele>
        <time>2014-08-23T13:38:36Z</time>
      </trkpt>
      <trkpt lat="49.66069" lon="4.91952">
        <ele>324</ele>
        <time>2014-08-23T13:38:43Z</time>
      </trkpt>
      <trkpt lat="49.66077" lon="4.92006">
        <ele>322</ele>
        <time>2014-08-23T13:38:53Z</time>
      </trkpt>
      <trkpt lat="49.6608" lon="4.92023">
        <ele>322</ele>
        <time>2014-08-23T13:38:56Z</time>
      </trkpt>
      <trkpt lat="49.66084" lon="4.9205">
        <ele>320</ele>
        <time>2014-08-23T13:39:01Z</time>
      </trkpt>
      <trkpt lat="49.66089" lon="4.92088">
        <ele>319</ele>
        <time>2014-08-23T13:39:08Z</time>
      </trkpt>
      <trkpt lat="49.66092" lon="4.92115">
        <ele>320</ele>
        <time>2014-08-23T13:39:13Z</time>
      </trkpt>
      <trkpt lat="49.66094" lon="4.92146">
        <ele>319</ele>
        <time>2014-08-23T13:39:19Z</time>
      </trkpt>
      <trkpt lat="49.66092" lon="4.92172">
        <ele>318</ele>
        <time>2014-08-23T13:39:24Z</time>
      </trkpt>
      <trkpt lat="49.66087" lon="4.92204">
        <ele>315</ele>
        <time>2014-08-23T13:39:30Z</time>
      </trkpt>
      <trkpt lat="49.66083" lon="4.92236">
        <ele>314</ele>
        <time>2014-08-23T13:39:36Z</time>
      </trkpt>
      <trkpt lat="49.6608" lon="4.92268">
        <ele>314</ele>
        <time>2014-08-23T13:39:42Z</time>
      </trkpt>
      <trkpt lat="49.66077" lon="4.923">
        <ele>313</ele>
        <time>2014-08-23T13:39:48Z</time>
      </trkpt>
      <trkpt lat="49.66073" lon="4.92332">
        <ele>313</ele>
        <time>2014-08-23T13:39:54Z</time>
      </trkpt>
      <trkpt lat="49.66069" lon="4.92368">
        <ele>313</ele>
        <time>2014-08-23T13:40:01Z</time>
      </trkpt>
      <trkpt lat="49.66065" lon="4.92394">
        <ele>313</ele>
        <time>2014-08-23T13:40:06Z</time>
      </trkpt>
      <trkpt lat="49.66072" lon="4.92422">
        <ele>311</ele>
        <time>2014-08-23T13:40:12Z</time>
      </trkpt>
      <trkpt lat="49.66089" lon="4.92458">
        <ele>313</ele>
        <time>2014-08-23T13:40:22Z</time>
      </trkpt>
      <trkpt lat="49.66093" lon="4.92465">
        <ele>314</ele>
        <time>2014-08-23T13:40:24Z</time>
      </trkpt>
      <trkpt lat="49.66103" lon="4.92491">
        <ele>317</ele>
        <time>2014-08-23T13:40:30Z</time>
      </trkpt>
      <trkpt lat="49.66114" lon="4.92524">
        <ele>319</ele>
        <time>2014-08-23T13:40:38Z</time>
      </trkpt>
      <trkpt lat="49.6612" lon="4.92542">
        <ele>318</ele>
        <time>2014-08-23T13:40:42Z</time>
      </trkpt>
      <trkpt lat="49.66136" lon="4.92575">
        <ele>319</ele>
        <time>2014-08-23T13:40:50Z</time>
      </trkpt>
      <trkpt lat="49.66147" lon="4.92598">
        <ele>322</ele>
        <time>2014-08-23T13:40:56Z</time>
      </trkpt>
      <trkpt lat="49.66161" lon="4.92629">
        <ele>325</ele>
        <time>2014-08-23T13:41:04Z</time>
      </trkpt>
      <trkpt lat="49.66179" lon="4.92636">
        <ele>323</ele>
        <time>2014-08-23T13:41:11Z</time>
      </trkpt>
      <trkpt lat="49.66188" lon="4.92631">
        <ele>322</ele>
        <time>2014-08-23T13:41:14Z</time>
      </trkpt>
      <trkpt lat="49.66209" lon="4.9262">
        <ele>325</ele>
        <time>2014-08-23T13:41:22Z</time>
      </trkpt>
      <trkpt lat="49.66217" lon="4.92616">
        <ele>324</ele>
        <time>2014-08-23T13:41:25Z</time>
      </trkpt>
      <trkpt lat="49.66231" lon="4.92608">
        <ele>325</ele>
        <time>2014-08-23T13:41:30Z</time>
      </trkpt>
      <trkpt lat="49.66248" lon="4.92597">
        <ele>328</ele>
        <time>2014-08-23T13:41:36Z</time>
      </trkpt>
      <trkpt lat="49.66264" lon="4.92585">
        <ele>329</ele>
        <time>2014-08-23T13:41:42Z</time>
      </trkpt>
      <trkpt lat="49.66281" lon="4.92573">
        <ele>330</ele>
        <time>2014-08-23T13:41:48Z</time>
      </trkpt>
      <trkpt lat="49.66299" lon="4.92574">
        <ele>334</ele>
        <time>2014-08-23T13:41:54Z</time>
      </trkpt>
      <trkpt lat="49.66315" lon="4.9259">
        <ele>334</ele>
        <time>2014-08-23T13:42:00Z</time>
      </trkpt>
      <trkpt lat="49.6633" lon="4.92602">
        <ele>335</ele>
        <time>2014-08-23T13:42:06Z</time>
      </trkpt>
      <trkpt lat="49.66341" lon="4.92607">
        <ele>340</ele>
        <time>2014-08-23T13:42:12Z</time>
      </trkpt>
      <trkpt lat="49.66354" lon="4.92613">
        <ele>340</ele>
        <time>2014-08-23T13:42:18Z</time>
      </trkpt>
      <trkpt lat="49.66388" lon="4.92635">
        <ele>343</ele>
        <time>2014-08-23T13:42:29Z</time>
      </trkpt>
      <trkpt lat="49.66396" lon="4.92639">
        <ele>343</ele>
        <time>2014-08-23T13:42:31Z</time>
      </trkpt>
      <trkpt lat="49.66414" lon="4.92648">
        <ele>342</ele>
        <time>2014-08-23T13:42:36Z</time>
      </trkpt>
      <trkpt lat="49.66433" lon="4.92655">
        <ele>341</ele>
        <time>2014-08-23T13:42:42Z</time>
      </trkpt>
      <trkpt lat="49.66452" lon="4.9266">
        <ele>340</ele>
        <time>2014-08-23T13:42:49Z</time>
      </trkpt>
      <trkpt lat="49.66467" lon="4.92677">
        <ele>339</ele>
        <time>2014-08-23T13:42:54Z</time>
      </trkpt>
      <trkpt lat="49.66492" lon="4.9268">
        <ele>334</ele>
        <time>2014-08-23T13:43:01Z</time>
      </trkpt>
      <trkpt lat="49.665" lon="4.92658">
        <ele>332</ele>
        <time>2014-08-23T13:43:06Z</time>
      </trkpt>
      <trkpt lat="49.66504" lon="4.92631">
        <ele>333</ele>
        <time>2014-08-23T13:43:12Z</time>
      </trkpt>
      <trkpt lat="49.6651" lon="4.92606">
        <ele>336</ele>
        <time>2014-08-23T13:43:18Z</time>
      </trkpt>
      <trkpt lat="49.66514" lon="4.92576">
        <ele>339</ele>
        <time>2014-08-23T13:43:26Z</time>
      </trkpt>
      <trkpt lat="49.66516" lon="4.92559">
        <ele>339</ele>
        <time>2014-08-23T13:43:30Z</time>
      </trkpt>
      <trkpt lat="49.6652" lon="4.92531">
        <ele>339</ele>
        <time>2014-08-23T13:43:36Z</time>
      </trkpt>
      <trkpt lat="49.66525" lon="4.92504">
        <ele>338</ele>
        <time>2014-08-23T13:43:42Z</time>
      </trkpt>
      <trkpt lat="49.66531" lon="4.92478">
        <ele>338</ele>
        <time>2014-08-23T13:43:48Z</time>
      </trkpt>
      <trkpt lat="49.66535" lon="4.92452">
        <ele>341</ele>
        <time>2014-08-23T13:43:54Z</time>
      </trkpt>
      <trkpt lat="49.6654" lon="4.9242">
        <ele>340</ele>
        <time>2014-08-23T13:44:01Z</time>
      </trkpt>
      <trkpt lat="49.66545" lon="4.92396">
        <ele>339</ele>
        <time>2014-08-23T13:44:06Z</time>
      </trkpt>
      <trkpt lat="49.66552" lon="4.9237">
        <ele>340</ele>
        <time>2014-08-23T13:44:12Z</time>
      </trkpt>
      <trkpt lat="49.66557" lon="4.92344">
        <ele>343</ele>
        <time>2014-08-23T13:44:18Z</time>
      </trkpt>
      <trkpt lat="49.66561" lon="4.92306">
        <ele>341</ele>
        <time>2014-08-23T13:44:26Z</time>
      </trkpt>
      <trkpt lat="49.66566" lon="4.92286">
        <ele>335</ele>
        <time>2014-08-23T13:44:30Z</time>
      </trkpt>
      <trkpt lat="49.66571" lon="4.92252">
        <ele>333</ele>
        <time>2014-08-23T13:44:37Z</time>
      </trkpt>
      <trkpt lat="49.66572" lon="4.92217">
        <ele>332</ele>
        <time>2014-08-23T13:44:44Z</time>
      </trkpt>
      <trkpt lat="49.66571" lon="4.92197">
        <ele>334</ele>
        <time>2014-08-23T13:44:48Z</time>
      </trkpt>
      <trkpt lat="49.66569" lon="4.92164">
        <ele>335</ele>
        <time>2014-08-23T13:44:55Z</time>
      </trkpt>
      <trkpt lat="49.66568" lon="4.92139">
        <ele>336</ele>
        <time>2014-08-23T13:45:00Z</time>
      </trkpt>
      <trkpt lat="49.66567" lon="4.9211">
        <ele>336</ele>
        <time>2014-08-23T13:45:06Z</time>
      </trkpt>
      <trkpt lat="49.66562" lon="4.92066">
        <ele>335</ele>
        <time>2014-08-23T13:45:15Z</time>
      </trkpt>
      <trkpt lat="49.66558" lon="4.92038">
        <ele>334</ele>
        <time>2014-08-23T13:45:21Z</time>
      </trkpt>
      <trkpt lat="49.66554" lon="4.9202">
        <ele>334</ele>
        <time>2014-08-23T13:45:25Z</time>
      </trkpt>
      <trkpt lat="49.6655" lon="4.91996">
        <ele>335</ele>
        <time>2014-08-23T13:45:30Z</time>
      </trkpt>
      <trkpt lat="49.66544" lon="4.91968">
        <ele>335</ele>
        <time>2014-08-23T13:45:36Z</time>
      </trkpt>
      <trkpt lat="49.66538" lon="4.91919">
        <ele>337</ele>
        <time>2014-08-23T13:45:46Z</time>
      </trkpt>
      <trkpt lat="49.66537" lon="4.91909">
        <ele>337</ele>
        <time>2014-08-23T13:45:48Z</time>
      </trkpt>
      <trkpt lat="49.66533" lon="4.91874">
        <ele>337</ele>
        <time>2014-08-23T13:45:55Z</time>
      </trkpt>
      <trkpt lat="49.66528" lon="4.91845">
        <ele>337</ele>
        <time>2014-08-23T13:46:01Z</time>
      </trkpt>
      <trkpt lat="49.66523" lon="4.91806">
        <ele>340</ele>
        <time>2014-08-23T13:46:10Z</time>
      </trkpt>
      <trkpt lat="49.66523" lon="4.91798">
        <ele>340</ele>
        <time>2014-08-23T13:46:12Z</time>
      </trkpt>
      <trkpt lat="49.66524" lon="4.91775">
        <ele>341</ele>
        <time>2014-08-23T13:46:18Z</time>
      </trkpt>
      <trkpt lat="49.66524" lon="4.91757">
        <ele>345</ele>
        <time>2014-08-23T13:46:24Z</time>
      </trkpt>
      <trkpt lat="49.66522" lon="4.9173">
        <ele>346</ele>
        <time>2014-08-23T13:46:30Z</time>
      </trkpt>
      <trkpt lat="49.66522" lon="4.91703">
        <ele>347</ele>
        <time>2014-08-23T13:46:36Z</time>
      </trkpt>
      <trkpt lat="49.66525" lon="4.9165">
        <ele>348</ele>
        <time>2014-08-23T13:46:46Z</time>
      </trkpt>
      <trkpt lat="49.66526" lon="4.91635">
        <ele>351</ele>
        <time>2014-08-23T13:46:49Z</time>
      </trkpt>
      <trkpt lat="49.66528" lon="4.91613">
        <ele>358</ele>
        <time>2014-08-23T13:46:54Z</time>
      </trkpt>
      <trkpt lat="49.66535" lon="4.91584">
        <ele>361</ele>
        <time>2014-08-23T13:47:01Z</time>
      </trkpt>
      <trkpt lat="49.6654" lon="4.91566">
        <ele>362</ele>
        <time>2014-08-23T13:47:06Z</time>
      </trkpt>
      <trkpt lat="49.66547" lon="4.91542">
        <ele>363</ele>
        <time>2014-08-23T13:47:12Z</time>
      </trkpt>
      <trkpt lat="49.66553" lon="4.91519">
        <ele>364</ele>
        <time>2014-08-23T13:47:18Z</time>
      </trkpt>
      <trkpt lat="49.6657" lon="4.91472">
        <ele>363</ele>
        <time>2014-08-23T13:47:28Z</time>
      </trkpt>
      <trkpt lat="49.66574" lon="4.91464">
        <ele>365</ele>
        <time>2014-08-23T13:47:30Z</time>
      </trkpt>
      <trkpt lat="49.66589" lon="4.91438">
        <ele>359</ele>
        <time>2014-08-23T13:47:37Z</time>
      </trkpt>
      <trkpt lat="49.66598" lon="4.91423">
        <ele>358</ele>
        <time>2014-08-23T13:47:43Z</time>
      </trkpt>
      <trkpt lat="49.66608" lon="4.91404">
        <ele>355</ele>
        <time>2014-08-23T13:47:48Z</time>
      </trkpt>
      <trkpt lat="49.66631" lon="4.91361">
        <ele>352</ele>
        <time>2014-08-23T13:47:58Z</time>
      </trkpt>
      <trkpt lat="49.66635" lon="4.91352">
        <ele>352</ele>
        <time>2014-08-23T13:48:00Z</time>
      </trkpt>
      <trkpt lat="49.66643" lon="4.91324">
        <ele>352</ele>
        <time>2014-08-23T13:48:06Z</time>
      </trkpt>
      <trkpt lat="49.66656" lon="4.91301">
        <ele>353</ele>
        <time>2014-08-23T13:48:12Z</time>
      </trkpt>
      <trkpt lat="49.66665" lon="4.91273">
        <ele>353</ele>
        <time>2014-08-23T13:48:18Z</time>
      </trkpt>
      <trkpt lat="49.66676" lon="4.91246">
        <ele>354</ele>
        <time>2014-08-23T13:48:24Z</time>
      </trkpt>
      <trkpt lat="49.66681" lon="4.91189">
        <ele>348</ele>
        <time>2014-08-23T13:48:35Z</time>
      </trkpt>
      <trkpt lat="49.66682" lon="4.91183">
        <ele>349</ele>
        <time>2014-08-23T13:48:36Z</time>
      </trkpt>
      <trkpt lat="49.66683" lon="4.91147">
        <ele>347</ele>
        <time>2014-08-23T13:48:42Z</time>
      </trkpt>
      <trkpt lat="49.6669" lon="4.91102">
        <ele>327</ele>
        <time>2014-08-23T13:48:52Z</time>
      </trkpt>
      <trkpt lat="49.66693" lon="4.91074">
        <ele>325</ele>
        <time>2014-08-23T13:48:59Z</time>
      </trkpt>
      <trkpt lat="49.66694" lon="4.91062">
        <ele>325</ele>
        <time>2014-08-23T13:49:01Z</time>
      </trkpt>
      <trkpt lat="49.66696" lon="4.91035">
        <ele>327</ele>
        <time>2014-08-23T13:49:06Z</time>
      </trkpt>
      <trkpt lat="49.66698" lon="4.91004">
        <ele>329</ele>
        <time>2014-08-23T13:49:12Z</time>
      </trkpt>
      <trkpt lat="49.66704" lon="4.90949">
        <ele>328</ele>
        <time>2014-08-23T13:49:23Z</time>
      </trkpt>
      <trkpt lat="49.66705" lon="4.90944">
        <ele>326</ele>
        <time>2014-08-23T13:49:24Z</time>
      </trkpt>
      <trkpt lat="49.6671" lon="4.90896">
        <ele>322</ele>
        <time>2014-08-23T13:49:34Z</time>
      </trkpt>
      <trkpt lat="49.66711" lon="4.90886">
        <ele>322</ele>
        <time>2014-08-23T13:49:36Z</time>
      </trkpt>
      <trkpt lat="49.66715" lon="4.90852">
        <ele>323</ele>
        <time>2014-08-23T13:49:43Z</time>
      </trkpt>
      <trkpt lat="49.66719" lon="4.90823">
        <ele>322</ele>
        <time>2014-08-23T13:49:49Z</time>
      </trkpt>
      <trkpt lat="49.66722" lon="4.90793">
        <ele>322</ele>
        <time>2014-08-23T13:49:55Z</time>
      </trkpt>
      <trkpt lat="49.66726" lon="4.90764">
        <ele>325</ele>
        <time>2014-08-23T13:50:01Z</time>
      </trkpt>
      <trkpt lat="49.66727" lon="4.90739">
        <ele>322</ele>
        <time>2014-08-23T13:50:06Z</time>
      </trkpt>
      <trkpt lat="49.66726" lon="4.90697">
        <ele>321</ele>
        <time>2014-08-23T13:50:14Z</time>
      </trkpt>
      <trkpt lat="49.66728" lon="4.90677">
        <ele>325</ele>
        <time>2014-08-23T13:50:18Z</time>
      </trkpt>
      <trkpt lat="49.66729" lon="4.90647">
        <ele>326</ele>
        <time>2014-08-23T13:50:24Z</time>
      </trkpt>
      <trkpt lat="49.66732" lon="4.90599">
        <ele>327</ele>
        <time>2014-08-23T13:50:34Z</time>
      </trkpt>
      <trkpt lat="49.66732" lon="4.90589">
        <ele>327</ele>
        <time>2014-08-23T13:50:36Z</time>
      </trkpt>
      <trkpt lat="49.66734" lon="4.90559">
        <ele>324</ele>
        <time>2014-08-23T13:50:42Z</time>
      </trkpt>
      <trkpt lat="49.66734" lon="4.90523">
        <ele>326</ele>
        <time>2014-08-23T13:50:49Z</time>
      </trkpt>
      <trkpt lat="49.66739" lon="4.90481">
        <ele>328</ele>
        <time>2014-08-23T13:50:57Z</time>
      </trkpt>
      <trkpt lat="49.66742" lon="4.90461">
        <ele>329</ele>
        <time>2014-08-23T13:51:01Z</time>
      </trkpt>
      <trkpt lat="49.66745" lon="4.90437">
        <ele>329</ele>
        <time>2014-08-23T13:51:06Z</time>
      </trkpt>
      <trkpt lat="49.66746" lon="4.90431">
        <ele>328</ele>
        <time>2014-08-23T13:51:12Z</time>
      </trkpt>
      <trkpt lat="49.66746" lon="4.90431">
        <ele>326</ele>
        <time>2014-08-23T13:51:18Z</time>
      </trkpt>
      <trkpt lat="49.66746" lon="4.9043">
        <ele>325</ele>
        <time>2014-08-23T13:51:24Z</time>
      </trkpt>
      <trkpt lat="49.66746" lon="4.90429">
        <ele>325</ele>
        <time>2014-08-23T13:51:34Z</time>
      </trkpt>
      <trkpt lat="49.66747" lon="4.90428">
        <ele>326</ele>
        <time>2014-08-23T13:51:36Z</time>
      </trkpt>
      <trkpt lat="49.66756" lon="4.90408">
        <ele>330</ele>
        <time>2014-08-23T13:51:42Z</time>
      </trkpt>
      <trkpt lat="49.66769" lon="4.904">
        <ele>335</ele>
        <time>2014-08-23T13:51:48Z</time>
      </trkpt>
      <trkpt lat="49.66793" lon="4.90401">
        <ele>340</ele>
        <time>2014-08-23T13:51:59Z</time>
      </trkpt>
      <trkpt lat="49.66798" lon="4.90402">
        <ele>341</ele>
        <time>2014-08-23T13:52:01Z</time>
      </trkpt>
      <trkpt lat="49.66812" lon="4.90402">
        <ele>342</ele>
        <time>2014-08-23T13:52:06Z</time>
      </trkpt>
      <trkpt lat="49.66831" lon="4.90392">
        <ele>341</ele>
        <time>2014-08-23T13:52:12Z</time>
      </trkpt>
      <trkpt lat="49.66844" lon="4.90373">
        <ele>343</ele>
        <time>2014-08-23T13:52:18Z</time>
      </trkpt>
      <trkpt lat="49.66857" lon="4.90354">
        <ele>344</ele>
        <time>2014-08-23T13:52:24Z</time>
      </trkpt>
      <trkpt lat="49.66873" lon="4.90326">
        <ele>346</ele>
        <time>2014-08-23T13:52:32Z</time>
      </trkpt>
      <trkpt lat="49.66879" lon="4.90311">
        <ele>346</ele>
        <time>2014-08-23T13:52:36Z</time>
      </trkpt>
      <trkpt lat="49.66889" lon="4.90289">
        <ele>349</ele>
        <time>2014-08-23T13:52:42Z</time>
      </trkpt>
      <trkpt lat="49.66901" lon="4.90265">
        <ele>346</ele>
        <time>2014-08-23T13:52:48Z</time>
      </trkpt>
      <trkpt lat="49.6692" lon="4.90231">
        <ele>349</ele>
        <time>2014-08-23T13:52:57Z</time>
      </trkpt>
      <trkpt lat="49.66925" lon="4.90219">
        <ele>351</ele>
        <time>2014-08-23T13:53:00Z</time>
      </trkpt>
      <trkpt lat="49.66937" lon="4.90196">
        <ele>350</ele>
        <time>2014-08-23T13:53:06Z</time>
      </trkpt>
      <trkpt lat="49.66952" lon="4.90172">
        <ele>351</ele>
        <time>2014-08-23T13:53:13Z</time>
      </trkpt>
      <trkpt lat="49.66962" lon="4.90154">
        <ele>349</ele>
        <time>2014-08-23T13:53:18Z</time>
      </trkpt>
      <trkpt lat="49.6697" lon="4.90136">
        <ele>354</ele>
        <time>2014-08-23T13:53:24Z</time>
      </trkpt>
      <trkpt lat="49.66986" lon="4.90108">
        <ele>355</ele>
        <time>2014-08-23T13:53:32Z</time>
      </trkpt>
      <trkpt lat="49.67003" lon="4.90077">
        <ele>356</ele>
        <time>2014-08-23T13:53:40Z</time>
      </trkpt>
      <trkpt lat="49.67006" lon="4.9007">
        <ele>357</ele>
        <time>2014-08-23T13:53:42Z</time>
      </trkpt>
      <trkpt lat="49.67014" lon="4.90045">
        <ele>358</ele>
        <time>2014-08-23T13:53:48Z</time>
      </trkpt>
      <trkpt lat="49.67028" lon="4.9002">
        <ele>361</ele>
        <time>2014-08-23T13:53:54Z</time>
      </trkpt>
      <trkpt lat="49.67042" lon="4.89995">
        <ele>360</ele>
        <time>2014-08-23T13:54:00Z</time>
      </trkpt>
      <trkpt lat="49.67067" lon="4.89947">
        <ele>354</ele>
        <time>2014-08-23T13:54:11Z</time>
      </trkpt>
      <trkpt lat="49.67069" lon="4.89943">
        <ele>353</ele>
        <time>2014-08-23T13:54:12Z</time>
      </trkpt>
      <trkpt lat="49.67082" lon="4.89919">
        <ele>352</ele>
        <time>2014-08-23T13:54:18Z</time>
      </trkpt>
      <trkpt lat="49.67102" lon="4.89893">
        <ele>348</ele>
        <time>2014-08-23T13:54:26Z</time>
      </trkpt>
      <trkpt lat="49.67113" lon="4.8988">
        <ele>344</ele>
        <time>2014-08-23T13:54:30Z</time>
      </trkpt>
      <trkpt lat="49.67133" lon="4.89848">
        <ele>343</ele>
        <time>2014-08-23T13:54:39Z</time>
      </trkpt>
      <trkpt lat="49.67142" lon="4.89835">
        <ele>343</ele>
        <time>2014-08-23T13:54:43Z</time>
      </trkpt>
      <trkpt lat="49.67154" lon="4.89823">
        <ele>344</ele>
        <time>2014-08-23T13:54:48Z</time>
      </trkpt>
      <trkpt lat="49.6718" lon="4.89796">
        <ele>343</ele>
        <time>2014-08-23T13:54:59Z</time>
      </trkpt>
      <trkpt lat="49.67182" lon="4.89793">
        <ele>343</ele>
        <time>2014-08-23T13:55:00Z</time>
      </trkpt>
      <trkpt lat="49.67194" lon="4.89774">
        <ele>341</ele>
        <time>2014-08-23T13:55:06Z</time>
      </trkpt>
      <trkpt lat="49.67215" lon="4.89745">
        <ele>337</ele>
        <time>2014-08-23T13:55:15Z</time>
      </trkpt>
      <trkpt lat="49.67221" lon="4.89722">
        <ele>335</ele>
        <time>2014-08-23T13:55:19Z</time>
      </trkpt>
      <trkpt lat="49.67234" lon="4.8968">
        <ele>331</ele>
        <time>2014-08-23T13:55:27Z</time>
      </trkpt>
      <trkpt lat="49.67244" lon="4.89673">
        <ele>327</ele>
        <time>2014-08-23T13:55:30Z</time>
      </trkpt>
      <trkpt lat="49.6727" lon="4.89656">
        <ele>318</ele>
        <time>2014-08-23T13:55:38Z</time>
      </trkpt>
      <trkpt lat="49.67283" lon="4.89646">
        <ele>317</ele>
        <time>2014-08-23T13:55:42Z</time>
      </trkpt>
      <trkpt lat="49.67302" lon="4.89639">
        <ele>314</ele>
        <time>2014-08-23T13:55:48Z</time>
      </trkpt>
      <trkpt lat="49.67317" lon="4.89631">
        <ele>312</ele>
        <time>2014-08-23T13:55:54Z</time>
      </trkpt>
      <trkpt lat="49.67355" lon="4.89623">
        <ele>312</ele>
        <time>2014-08-23T13:56:05Z</time>
      </trkpt>
      <trkpt lat="49.67359" lon="4.89623">
        <ele>312</ele>
        <time>2014-08-23T13:56:06Z</time>
      </trkpt>
      <trkpt lat="49.67382" lon="4.89617">
        <ele>312</ele>
        <time>2014-08-23T13:56:12Z</time>
      </trkpt>
      <trkpt lat="49.67404" lon="4.89611">
        <ele>312</ele>
        <time>2014-08-23T13:56:18Z</time>
      </trkpt>
      <trkpt lat="49.67421" lon="4.89604">
        <ele>313</ele>
        <time>2014-08-23T13:56:24Z</time>
      </trkpt>
      <trkpt lat="49.67449" lon="4.89593">
        <ele>315</ele>
        <time>2014-08-23T13:56:34Z</time>
      </trkpt>
      <trkpt lat="49.67454" lon="4.89589">
        <ele>314</ele>
        <time>2014-08-23T13:56:36Z</time>
      </trkpt>
      <trkpt lat="49.67472" lon="4.89582">
        <ele>317</ele>
        <time>2014-08-23T13:56:42Z</time>
      </trkpt>
      <trkpt lat="49.67489" lon="4.89579">
        <ele>324</ele>
        <time>2014-08-23T13:56:48Z</time>
      </trkpt>
      <trkpt lat="49.67509" lon="4.8958">
        <ele>327</ele>
        <time>2014-08-23T13:56:54Z</time>
      </trkpt>
      <trkpt lat="49.67534" lon="4.89576">
        <ele>329</ele>
        <time>2014-08-23T13:57:00Z</time>
      </trkpt>
      <trkpt lat="49.67554" lon="4.8957">
        <ele>323</ele>
        <time>2014-08-23T13:57:06Z</time>
      </trkpt>
      <trkpt lat="49.67576" lon="4.89564">
        <ele>322</ele>
        <time>2014-08-23T13:57:12Z</time>
      </trkpt>
      <trkpt lat="49.67598" lon="4.89563">
        <ele>319</ele>
        <time>2014-08-23T13:57:18Z</time>
      </trkpt>
      <trkpt lat="49.67621" lon="4.89564">
        <ele>313</ele>
        <time>2014-08-23T13:57:27Z</time>
      </trkpt>
      <trkpt lat="49.67625" lon="4.89563">
        <ele>314</ele>
        <time>2014-08-23T13:57:30Z</time>
      </trkpt>
      <trkpt lat="49.67646" lon="4.89564">
        <ele>306</ele>
        <time>2014-08-23T13:57:40Z</time>
      </trkpt>
      <trkpt lat="49.67653" lon="4.89558">
        <ele>296</ele>
        <time>2014-08-23T13:57:46Z</time>
      </trkpt>
      <trkpt lat="49.67654" lon="4.89557">
        <ele>295</ele>
        <time>2014-08-23T13:57:48Z</time>
      </trkpt>
      <trkpt lat="49.67663" lon="4.89557">
        <ele>294</ele>
        <time>2014-08-23T13:57:54Z</time>
      </trkpt>
      <trkpt lat="49.67678" lon="4.89558">
        <ele>293</ele>
        <time>2014-08-23T13:58:00Z</time>
      </trkpt>
      <trkpt lat="49.67695" lon="4.89561">
        <ele>286</ele>
        <time>2014-08-23T13:58:06Z</time>
      </trkpt>
      <trkpt lat="49.67712" lon="4.89569">
        <ele>285</ele>
        <time>2014-08-23T13:58:12Z</time>
      </trkpt>
      <trkpt lat="49.67749" lon="4.89588">
        <ele>283</ele>
        <time>2014-08-23T13:58:23Z</time>
      </trkpt>
      <trkpt lat="49.67753" lon="4.89591">
        <ele>284</ele>
        <time>2014-08-23T13:58:24Z</time>
      </trkpt>
      <trkpt lat="49.67774" lon="4.89601">
        <ele>282</ele>
        <time>2014-08-23T13:58:30Z</time>
      </trkpt>
      <trkpt lat="49.67796" lon="4.89609">
        <ele>279</ele>
        <time>2014-08-23T13:58:37Z</time>
      </trkpt>
      <trkpt lat="49.67824" lon="4.89619">
        <ele>275</ele>
        <time>2014-08-23T13:58:46Z</time>
      </trkpt>
      <trkpt lat="49.6783" lon="4.8962">
        <ele>274</ele>
        <time>2014-08-23T13:58:48Z</time>
      </trkpt>
      <trkpt lat="49.67849" lon="4.89618">
        <ele>271</ele>
        <time>2014-08-23T13:58:54Z</time>
      </trkpt>
      <trkpt lat="49.6787" lon="4.8962">
        <ele>270</ele>
        <time>2014-08-23T13:59:01Z</time>
      </trkpt>
      <trkpt lat="49.67885" lon="4.89622">
        <ele>269</ele>
        <time>2014-08-23T13:59:06Z</time>
      </trkpt>
      <trkpt lat="49.67903" lon="4.89622">
        <ele>268</ele>
        <time>2014-08-23T13:59:12Z</time>
      </trkpt>
      <trkpt lat="49.67923" lon="4.89614">
        <ele>264</ele>
        <time>2014-08-23T13:59:19Z</time>
      </trkpt>
      <trkpt lat="49.67936" lon="4.89607">
        <ele>261</ele>
        <time>2014-08-23T13:59:24Z</time>
      </trkpt>
      <trkpt lat="49.67954" lon="4.89602">
        <ele>258</ele>
        <time>2014-08-23T13:59:30Z</time>
      </trkpt>
      <trkpt lat="49.67971" lon="4.89597">
        <ele>256</ele>
        <time>2014-08-23T13:59:36Z</time>
      </trkpt>
      <trkpt lat="49.67991" lon="4.89594">
        <ele>253</ele>
        <time>2014-08-23T13:59:43Z</time>
      </trkpt>
      <trkpt lat="49.68004" lon="4.89602">
        <ele>251</ele>
        <time>2014-08-23T13:59:48Z</time>
      </trkpt>
      <trkpt lat="49.68017" lon="4.8962">
        <ele>250</ele>
        <time>2014-08-23T13:59:54Z</time>
      </trkpt>
      <trkpt lat="49.68031" lon="4.89643">
        <ele>248</ele>
        <time>2014-08-23T14:00:01Z</time>
      </trkpt>
      <trkpt lat="49.68039" lon="4.89661">
        <ele>247</ele>
        <time>2014-08-23T14:00:06Z</time>
      </trkpt>
      <trkpt lat="49.68047" lon="4.89685">
        <ele>245</ele>
        <time>2014-08-23T14:00:12Z</time>
      </trkpt>
      <trkpt lat="49.68059" lon="4.89715">
        <ele>243</ele>
        <time>2014-08-23T14:00:19Z</time>
      </trkpt>
      <trkpt lat="49.68069" lon="4.89734">
        <ele>243</ele>
        <time>2014-08-23T14:00:24Z</time>
      </trkpt>
      <trkpt lat="49.68086" lon="4.89763">
        <ele>241</ele>
        <time>2014-08-23T14:00:32Z</time>
      </trkpt>
      <trkpt lat="49.68094" lon="4.89773">
        <ele>240</ele>
        <time>2014-08-23T14:00:36Z</time>
      </trkpt>
      <trkpt lat="49.68106" lon="4.89789">
        <ele>239</ele>
        <time>2014-08-23T14:00:42Z</time>
      </trkpt>
      <trkpt lat="49.68122" lon="4.89801">
        <ele>235</ele>
        <time>2014-08-23T14:00:48Z</time>
      </trkpt>
      <trkpt lat="49.68138" lon="4.89817">
        <ele>232</ele>
        <time>2014-08-23T14:00:55Z</time>
      </trkpt>
      <trkpt lat="49.68159" lon="4.89822">
        <ele>230</ele>
        <time>2014-08-23T14:01:03Z</time>
      </trkpt>
      <trkpt lat="49.6817" lon="4.89824">
        <ele>229</ele>
        <time>2014-08-23T14:01:07Z</time>
      </trkpt>
      <trkpt lat="49.6819" lon="4.89833">
        <ele>226</ele>
        <time>2014-08-23T14:01:14Z</time>
      </trkpt>
      <trkpt lat="49.68208" lon="4.89838">
        <ele>226</ele>
        <time>2014-08-23T14:01:20Z</time>
      </trkpt>
      <trkpt lat="49.68228" lon="4.89847">
        <ele>225</ele>
        <time>2014-08-23T14:01:27Z</time>
      </trkpt>
      <trkpt lat="49.68237" lon="4.89851">
        <ele>225</ele>
        <time>2014-08-23T14:01:30Z</time>
      </trkpt>
      <trkpt lat="49.68256" lon="4.89858">
        <ele>223</ele>
        <time>2014-08-23T14:01:36Z</time>
      </trkpt>
      <trkpt lat="49.68286" lon="4.89871">
        <ele>221</ele>
        <time>2014-08-23T14:01:46Z</time>
      </trkpt>
      <trkpt lat="49.68298" lon="4.89872">
        <ele>220</ele>
        <time>2014-08-23T14:01:50Z</time>
      </trkpt>
      <trkpt lat="49.6831" lon="4.89875">
        <ele>218</ele>
        <time>2014-08-23T14:01:54Z</time>
      </trkpt>
      <trkpt lat="49.68328" lon="4.89882">
        <ele>217</ele>
        <time>2014-08-23T14:02:00Z</time>
      </trkpt>
      <trkpt lat="49.68351" lon="4.89897">
        <ele>215</ele>
        <time>2014-08-23T14:02:08Z</time>
      </trkpt>
      <trkpt lat="49.68368" lon="4.89918">
        <ele>214</ele>
        <time>2014-08-23T14:02:15Z</time>
      </trkpt>
      <trkpt lat="49.68375" lon="4.89929">
        <ele>213</ele>
        <time>2014-08-23T14:02:18Z</time>
      </trkpt>
      <trkpt lat="49.68389" lon="4.8995">
        <ele>212</ele>
        <time>2014-08-23T14:02:24Z</time>
      </trkpt>
      <trkpt lat="49.68403" lon="4.89975">
        <ele>210</ele>
        <time>2014-08-23T14:02:31Z</time>
      </trkpt>
      <trkpt lat="49.68411" lon="4.89996">
        <ele>209</ele>
        <time>2014-08-23T14:02:36Z</time>
      </trkpt>
      <trkpt lat="49.68421" lon="4.90022">
        <ele>205</ele>
        <time>2014-08-23T14:02:43Z</time>
      </trkpt>
      <trkpt lat="49.68437" lon="4.90053">
        <ele>201</ele>
        <time>2014-08-23T14:02:52Z</time>
      </trkpt>
      <trkpt lat="49.68441" lon="4.90059">
        <ele>200</ele>
        <time>2014-08-23T14:02:54Z</time>
      </trkpt>
      <trkpt lat="49.68452" lon="4.90078">
        <ele>198</ele>
        <time>2014-08-23T14:03:00Z</time>
      </trkpt>
      <trkpt lat="49.68462" lon="4.90096">
        <ele>196</ele>
        <time>2014-08-23T14:03:06Z</time>
      </trkpt>
      <trkpt lat="49.68471" lon="4.90116">
        <ele>194</ele>
        <time>2014-08-23T14:03:12Z</time>
      </trkpt>
      <trkpt lat="49.68482" lon="4.90136">
        <ele>193</ele>
        <time>2014-08-23T14:03:18Z</time>
      </trkpt>
      <trkpt lat="49.68491" lon="4.90157">
        <ele>191</ele>
        <time>2014-08-23T14:03:24Z</time>
      </trkpt>
      <trkpt lat="49.68502" lon="4.90181">
        <ele>190</ele>
        <time>2014-08-23T14:03:31Z</time>
      </trkpt>
      <trkpt lat="49.6851" lon="4.902">
        <ele>191</ele>
        <time>2014-08-23T14:03:36Z</time>
      </trkpt>
      <trkpt lat="49.68527" lon="4.90233">
        <ele>189</ele>
        <time>2014-08-23T14:03:45Z</time>
      </trkpt>
      <trkpt lat="49.68533" lon="4.90244">
        <ele>189</ele>
        <time>2014-08-23T14:03:48Z</time>
      </trkpt>
      <trkpt lat="49.68547" lon="4.90263">
        <ele>189</ele>
        <time>2014-08-23T14:03:54Z</time>
      </trkpt>
      <trkpt lat="49.68572" lon="4.90259">
        <ele>187</ele>
        <time>2014-08-23T14:04:02Z</time>
      </trkpt>
      <trkpt lat="49.68585" lon="4.90252">
        <ele>186</ele>
        <time>2014-08-23T14:04:06Z</time>
      </trkpt>
      <trkpt lat="49.68603" lon="4.90243">
        <ele>186</ele>
        <time>2014-08-23T14:04:12Z</time>
      </trkpt>
      <trkpt lat="49.68624" lon="4.9023">
        <ele>184</ele>
        <time>2014-08-23T14:04:19Z</time>
      </trkpt>
      <trkpt lat="49.68634" lon="4.90211">
        <ele>181</ele>
        <time>2014-08-23T14:04:24Z</time>
      </trkpt>
      <trkpt lat="49.68626" lon="4.90173">
        <ele>180</ele>
        <time>2014-08-23T14:04:32Z</time>
      </trkpt>
      <trkpt lat="49.68624" lon="4.90154">
        <ele>181</ele>
        <time>2014-08-23T14:04:36Z</time>
      </trkpt>
      <trkpt lat="49.68636" lon="4.90132">
        <ele>181</ele>
        <time>2014-08-23T14:04:42Z</time>
      </trkpt>
      <trkpt lat="49.68654" lon="4.90123">
        <ele>182</ele>
        <time>2014-08-23T14:04:48Z</time>
      </trkpt>
      <trkpt lat="49.68671" lon="4.90115">
        <ele>184</ele>
        <time>2014-08-23T14:04:54Z</time>
      </trkpt>
      <trkpt lat="49.68699" lon="4.901">
        <ele>184</ele>
        <time>2014-08-23T14:05:04Z</time>
      </trkpt>
      <trkpt lat="49.6871" lon="4.90093">
        <ele>183</ele>
        <time>2014-08-23T14:05:08Z</time>
      </trkpt>
      <trkpt lat="49.68722" lon="4.90087">
        <ele>180</ele>
        <time>2014-08-23T14:05:12Z</time>
      </trkpt>
      <trkpt lat="49.68739" lon="4.90076">
        <ele>180</ele>
        <time>2014-08-23T14:05:18Z</time>
      </trkpt>
      <trkpt lat="49.6876" lon="4.90065">
        <ele>179</ele>
        <time>2014-08-23T14:05:25Z</time>
      </trkpt>
      <trkpt lat="49.68775" lon="4.90059">
        <ele>180</ele>
        <time>2014-08-23T14:05:30Z</time>
      </trkpt>
      <trkpt lat="49.68791" lon="4.90047">
        <ele>180</ele>
        <time>2014-08-23T14:05:36Z</time>
      </trkpt>
      <trkpt lat="49.68805" lon="4.90026">
        <ele>178</ele>
        <time>2014-08-23T14:05:42Z</time>
      </trkpt>
      <trkpt lat="49.68816" lon="4.90001">
        <ele>175</ele>
        <time>2014-08-23T14:05:48Z</time>
      </trkpt>
      <trkpt lat="49.68827" lon="4.89972">
        <ele>175</ele>
        <time>2014-08-23T14:05:55Z</time>
      </trkpt>
      <trkpt lat="49.68833" lon="4.89945">
        <ele>175</ele>
        <time>2014-08-23T14:06:01Z</time>
      </trkpt>
      <trkpt lat="49.6884" lon="4.89917">
        <ele>175</ele>
        <time>2014-08-23T14:06:07Z</time>
      </trkpt>
      <trkpt lat="49.68846" lon="4.8989">
        <ele>174</ele>
        <time>2014-08-23T14:06:13Z</time>
      </trkpt>
      <trkpt lat="49.68852" lon="4.89867">
        <ele>175</ele>
        <time>2014-08-23T14:06:18Z</time>
      </trkpt>
      <trkpt lat="49.68861" lon="4.89843">
        <ele>175</ele>
        <time>2014-08-23T14:06:24Z</time>
      </trkpt>
      <trkpt lat="49.68874" lon="4.89822">
        <ele>174</ele>
        <time>2014-08-23T14:06:30Z</time>
      </trkpt>
      <trkpt lat="49.68887" lon="4.89802">
        <ele>175</ele>
        <time>2014-08-23T14:06:36Z</time>
      </trkpt>
      <trkpt lat="49.68908" lon="4.89772">
        <ele>177</ele>
        <time>2014-08-23T14:06:46Z</time>
      </trkpt>
      <trkpt lat="49.68913" lon="4.89767">
        <ele>177</ele>
        <time>2014-08-23T14:06:48Z</time>
      </trkpt>
      <trkpt lat="49.68922" lon="4.89751">
        <ele>180</ele>
        <time>2014-08-23T14:06:54Z</time>
      </trkpt>
      <trkpt lat="49.68934" lon="4.89729">
        <ele>181</ele>
        <time>2014-08-23T14:07:01Z</time>
      </trkpt>
      <trkpt lat="49.68948" lon="4.89707">
        <ele>181</ele>
        <time>2014-08-23T14:07:08Z</time>
      </trkpt>
      <trkpt lat="49.68955" lon="4.89695">
        <ele>182</ele>
        <time>2014-08-23T14:07:12Z</time>
      </trkpt>
      <trkpt lat="49.68967" lon="4.89678">
        <ele>183</ele>
        <time>2014-08-23T14:07:20Z</time>
      </trkpt>
      <trkpt lat="49.68976" lon="4.89663">
        <ele>185</ele>
        <time>2014-08-23T14:07:26Z</time>
      </trkpt>
      <trkpt lat="49.68983" lon="4.89653">
        <ele>185</ele>
        <time>2014-08-23T14:07:30Z</time>
      </trkpt>
      <trkpt lat="49.68995" lon="4.89633">
        <ele>187</ele>
        <time>2014-08-23T14:07:37Z</time>
      </trkpt>
      <trkpt lat="49.69009" lon="4.89609">
        <ele>188</ele>
        <time>2014-08-23T14:07:46Z</time>
      </trkpt>
      <trkpt lat="49.69013" lon="4.89601">
        <ele>188</ele>
        <time>2014-08-23T14:07:49Z</time>
      </trkpt>
      <trkpt lat="49.69025" lon="4.89585">
        <ele>189</ele>
        <time>2014-08-23T14:07:56Z</time>
      </trkpt>
      <trkpt lat="49.69031" lon="4.89574">
        <ele>190</ele>
        <time>2014-08-23T14:08:00Z</time>
      </trkpt>
      <trkpt lat="49.69033" lon="4.89548">
        <ele>191</ele>
        <time>2014-08-23T14:08:07Z</time>
      </trkpt>
      <trkpt lat="49.69027" lon="4.89523">
        <ele>193</ele>
        <time>2014-08-23T14:08:14Z</time>
      </trkpt>
      <trkpt lat="49.69022" lon="4.89509">
        <ele>193</ele>
        <time>2014-08-23T14:08:18Z</time>
      </trkpt>
      <trkpt lat="49.69015" lon="4.89484">
        <ele>193</ele>
        <time>2014-08-23T14:08:25Z</time>
      </trkpt>
      <trkpt lat="49.6901" lon="4.89466">
        <ele>194</ele>
        <time>2014-08-23T14:08:30Z</time>
      </trkpt>
      <trkpt lat="49.69004" lon="4.89444">
        <ele>195</ele>
        <time>2014-08-23T14:08:36Z</time>
      </trkpt>
      <trkpt lat="49.68998" lon="4.89423">
        <ele>196</ele>
        <time>2014-08-23T14:08:42Z</time>
      </trkpt>
      <trkpt lat="49.68993" lon="4.89401">
        <ele>196</ele>
        <time>2014-08-23T14:08:48Z</time>
      </trkpt>
      <trkpt lat="49.68985" lon="4.89378">
        <ele>198</ele>
        <time>2014-08-23T14:08:55Z</time>
      </trkpt>
      <trkpt lat="49.68973" lon="4.89347">
        <ele>199</ele>
        <time>2014-08-23T14:09:05Z</time>
      </trkpt>
      <trkpt lat="49.68966" lon="4.89333">
        <ele>202</ele>
        <time>2014-08-23T14:09:10Z</time>
      </trkpt>
      <trkpt lat="49.68963" lon="4.89328">
        <ele>203</ele>
        <time>2014-08-23T14:09:12Z</time>
      </trkpt>
      <trkpt lat="49.6895" lon="4.89305">
        <ele>205</ele>
        <time>2014-08-23T14:09:20Z</time>
      </trkpt>
      <trkpt lat="49.68936" lon="4.89278">
        <ele>209</ele>
        <time>2014-08-23T14:09:29Z</time>
      </trkpt>
      <trkpt lat="49.68928" lon="4.89263">
        <ele>208</ele>
        <time>2014-08-23T14:09:34Z</time>
      </trkpt>
      <trkpt lat="49.68926" lon="4.89256">
        <ele>208</ele>
        <time>2014-08-23T14:09:36Z</time>
      </trkpt>
      <trkpt lat="49.68917" lon="4.89228">
        <ele>209</ele>
        <time>2014-08-23T14:09:44Z</time>
      </trkpt>
      <trkpt lat="49.68912" lon="4.89214">
        <ele>210</ele>
        <time>2014-08-23T14:09:48Z</time>
      </trkpt>
      <trkpt lat="49.68908" lon="4.89192">
        <ele>211</ele>
        <time>2014-08-23T14:09:54Z</time>
      </trkpt>
      <trkpt lat="49.68902" lon="4.89165">
        <ele>211</ele>
        <time>2014-08-23T14:10:01Z</time>
      </trkpt>
      <trkpt lat="49.68901" lon="4.89145">
        <ele>211</ele>
        <time>2014-08-23T14:10:06Z</time>
      </trkpt>
      <trkpt lat="49.68899" lon="4.89122">
        <ele>212</ele>
        <time>2014-08-23T14:10:12Z</time>
      </trkpt>
      <trkpt lat="49.68894" lon="4.89085">
        <ele>214</ele>
        <time>2014-08-23T14:10:22Z</time>
      </trkpt>
      <trkpt lat="49.68893" lon="4.89078">
        <ele>214</ele>
        <time>2014-08-23T14:10:24Z</time>
      </trkpt>
      <trkpt lat="49.68887" lon="4.89045">
        <ele>215</ele>
        <time>2014-08-23T14:10:33Z</time>
      </trkpt>
      <trkpt lat="49.68883" lon="4.8902">
        <ele>217</ele>
        <time>2014-08-23T14:10:40Z</time>
      </trkpt>
      <trkpt lat="49.68887" lon="4.89002">
        <ele>217</ele>
        <time>2014-08-23T14:10:45Z</time>
      </trkpt>
      <trkpt lat="49.68891" lon="4.8899">
        <ele>218</ele>
        <time>2014-08-23T14:10:49Z</time>
      </trkpt>
      <trkpt lat="49.68895" lon="4.8898">
        <ele>218</ele>
        <time>2014-08-23T14:10:54Z</time>
      </trkpt>
      <trkpt lat="49.68901" lon="4.88961">
        <ele>219</ele>
        <time>2014-08-23T14:11:00Z</time>
      </trkpt>
      <trkpt lat="49.68913" lon="4.88927">
        <ele>220</ele>
        <time>2014-08-23T14:11:10Z</time>
      </trkpt>
      <trkpt lat="49.68915" lon="4.8892">
        <ele>220</ele>
        <time>2014-08-23T14:11:12Z</time>
      </trkpt>
      <trkpt lat="49.68922" lon="4.88887">
        <ele>221</ele>
        <time>2014-08-23T14:11:21Z</time>
      </trkpt>
      <trkpt lat="49.6892" lon="4.88875">
        <ele>221</ele>
        <time>2014-08-23T14:11:24Z</time>
      </trkpt>
      <trkpt lat="49.68913" lon="4.88848">
        <ele>221</ele>
        <time>2014-08-23T14:11:32Z</time>
      </trkpt>
      <trkpt lat="49.68911" lon="4.88833">
        <ele>224</ele>
        <time>2014-08-23T14:11:37Z</time>
      </trkpt>
      <trkpt lat="49.6891" lon="4.88816">
        <ele>227</ele>
        <time>2014-08-23T14:11:44Z</time>
      </trkpt>
      <trkpt lat="49.68912" lon="4.88801">
        <ele>229</ele>
        <time>2014-08-23T14:11:49Z</time>
      </trkpt>
      <trkpt lat="49.68916" lon="4.88774">
        <ele>234</ele>
        <time>2014-08-23T14:11:58Z</time>
      </trkpt>
      <trkpt lat="49.68917" lon="4.88768">
        <ele>235</ele>
        <time>2014-08-23T14:12:00Z</time>
      </trkpt>
      <trkpt lat="49.68922" lon="4.88745">
        <ele>238</ele>
        <time>2014-08-23T14:12:07Z</time>
      </trkpt>
      <trkpt lat="49.68927" lon="4.88724">
        <ele>237</ele>
        <time>2014-08-23T14:12:12Z</time>
      </trkpt>
      <trkpt lat="49.68933" lon="4.88698">
        <ele>236</ele>
        <time>2014-08-23T14:12:18Z</time>
      </trkpt>
      <trkpt lat="49.68937" lon="4.88665">
        <ele>235</ele>
        <time>2014-08-23T14:12:28Z</time>
      </trkpt>
      <trkpt lat="49.68933" lon="4.88658">
        <ele>229</ele>
        <time>2014-08-23T14:12:30Z</time>
      </trkpt>
      <trkpt lat="49.68917" lon="4.88654">
        <ele>228</ele>
        <time>2014-08-23T14:12:36Z</time>
      </trkpt>
      <trkpt lat="49.68902" lon="4.88651">
        <ele>228</ele>
        <time>2014-08-23T14:12:42Z</time>
      </trkpt>
      <trkpt lat="49.68888" lon="4.88651">
        <ele>227</ele>
        <time>2014-08-23T14:12:48Z</time>
      </trkpt>
      <trkpt lat="49.68874" lon="4.8865">
        <ele>227</ele>
        <time>2014-08-23T14:12:54Z</time>
      </trkpt>
      <trkpt lat="49.68855" lon="4.88652">
        <ele>227</ele>
        <time>2014-08-23T14:13:02Z</time>
      </trkpt>
      <trkpt lat="49.68845" lon="4.88652">
        <ele>226</ele>
        <time>2014-08-23T14:13:06Z</time>
      </trkpt>
      <trkpt lat="49.6883" lon="4.88653">
        <ele>225</ele>
        <time>2014-08-23T14:13:12Z</time>
      </trkpt>
      <trkpt lat="49.68818" lon="4.88651">
        <ele>225</ele>
        <time>2014-08-23T14:13:18Z</time>
      </trkpt>
      <trkpt lat="49.68811" lon="4.88636">
        <ele>226</ele>
        <time>2014-08-23T14:13:24Z</time>
      </trkpt>
      <trkpt lat="49.68809" lon="4.88606">
        <ele>229</ele>
        <time>2014-08-23T14:13:34Z</time>
      </trkpt>
      <trkpt lat="49.68808" lon="4.88601">
        <ele>229</ele>
        <time>2014-08-23T14:13:36Z</time>
      </trkpt>
      <trkpt lat="49.68805" lon="4.8858">
        <ele>231</ele>
        <time>2014-08-23T14:13:43Z</time>
      </trkpt>
      <trkpt lat="49.68802" lon="4.88552">
        <ele>232</ele>
        <time>2014-08-23T14:13:52Z</time>
      </trkpt>
      <trkpt lat="49.68801" lon="4.88547">
        <ele>232</ele>
        <time>2014-08-23T14:13:54Z</time>
      </trkpt>
      <trkpt lat="49.688" lon="4.88527">
        <ele>234</ele>
        <time>2014-08-23T14:14:01Z</time>
      </trkpt>
      <trkpt lat="49.68799" lon="4.88503">
        <ele>236</ele>
        <time>2014-08-23T14:14:10Z</time>
      </trkpt>
      <trkpt lat="49.68796" lon="4.88487">
        <ele>237</ele>
        <time>2014-08-23T14:14:16Z</time>
      </trkpt>
      <trkpt lat="49.68795" lon="4.88482">
        <ele>238</ele>
        <time>2014-08-23T14:14:18Z</time>
      </trkpt>
      <trkpt lat="49.68793" lon="4.88459">
        <ele>238</ele>
        <time>2014-08-23T14:14:26Z</time>
      </trkpt>
      <trkpt lat="49.68792" lon="4.88438">
        <ele>239</ele>
        <time>2014-08-23T14:14:33Z</time>
      </trkpt>
      <trkpt lat="49.68791" lon="4.88429">
        <ele>239</ele>
        <time>2014-08-23T14:14:36Z</time>
      </trkpt>
      <trkpt lat="49.68793" lon="4.88411">
        <ele>240</ele>
        <time>2014-08-23T14:14:42Z</time>
      </trkpt>
      <trkpt lat="49.68796" lon="4.88388">
        <ele>239</ele>
        <time>2014-08-23T14:14:49Z</time>
      </trkpt>
      <trkpt lat="49.688" lon="4.88373">
        <ele>240</ele>
        <time>2014-08-23T14:14:54Z</time>
      </trkpt>
      <trkpt lat="49.68802" lon="4.88349">
        <ele>240</ele>
        <time>2014-08-23T14:15:02Z</time>
      </trkpt>
      <trkpt lat="49.68805" lon="4.88331">
        <ele>242</ele>
        <time>2014-08-23T14:15:08Z</time>
      </trkpt>
      <trkpt lat="49.68807" lon="4.88319">
        <ele>244</ele>
        <time>2014-08-23T14:15:12Z</time>
      </trkpt>
      <trkpt lat="49.6881" lon="4.88297">
        <ele>244</ele>
        <time>2014-08-23T14:15:19Z</time>
      </trkpt>
      <trkpt lat="49.68812" lon="4.88281">
        <ele>244</ele>
        <time>2014-08-23T14:15:24Z</time>
      </trkpt>
      <trkpt lat="49.68815" lon="4.88271">
        <ele>245</ele>
        <time>2014-08-23T14:15:32Z</time>
      </trkpt>
      <trkpt lat="49.68814" lon="4.88261">
        <ele>245</ele>
        <time>2014-08-23T14:15:36Z</time>
      </trkpt>
      <trkpt lat="49.68812" lon="4.8824">
        <ele>248</ele>
        <time>2014-08-23T14:15:42Z</time>
      </trkpt>
      <trkpt lat="49.68809" lon="4.88221">
        <ele>251</ele>
        <time>2014-08-23T14:15:48Z</time>
      </trkpt>
      <trkpt lat="49.68803" lon="4.88193">
        <ele>257</ele>
        <time>2014-08-23T14:15:58Z</time>
      </trkpt>
      <trkpt lat="49.68801" lon="4.88187">
        <ele>257</ele>
        <time>2014-08-23T14:16:00Z</time>
      </trkpt>
      <trkpt lat="49.68797" lon="4.88169">
        <ele>257</ele>
        <time>2014-08-23T14:16:06Z</time>
      </trkpt>
      <trkpt lat="49.68791" lon="4.88151">
        <ele>257</ele>
        <time>2014-08-23T14:16:12Z</time>
      </trkpt>
      <trkpt lat="49.68786" lon="4.88134">
        <ele>260</ele>
        <time>2014-08-23T14:16:18Z</time>
      </trkpt>
      <trkpt lat="49.68777" lon="4.88107">
        <ele>267</ele>
        <time>2014-08-23T14:16:28Z</time>
      </trkpt>
      <trkpt lat="49.68776" lon="4.88098">
        <ele>269</ele>
        <time>2014-08-23T14:16:31Z</time>
      </trkpt>
      <trkpt lat="49.68773" lon="4.88082">
        <ele>272</ele>
        <time>2014-08-23T14:16:36Z</time>
      </trkpt>
      <trkpt lat="49.68769" lon="4.88052">
        <ele>274</ele>
        <time>2014-08-23T14:16:46Z</time>
      </trkpt>
      <trkpt lat="49.68767" lon="4.88046">
        <ele>274</ele>
        <time>2014-08-23T14:16:48Z</time>
      </trkpt>
      <trkpt lat="49.68761" lon="4.88025">
        <ele>271</ele>
        <time>2014-08-23T14:16:55Z</time>
      </trkpt>
      <trkpt lat="49.68755" lon="4.88008">
        <ele>272</ele>
        <time>2014-08-23T14:17:01Z</time>
      </trkpt>
      <trkpt lat="49.68746" lon="4.87988">
        <ele>273</ele>
        <time>2014-08-23T14:17:08Z</time>
      </trkpt>
      <trkpt lat="49.68735" lon="4.87968">
        <ele>272</ele>
        <time>2014-08-23T14:17:15Z</time>
      </trkpt>
      <trkpt lat="49.68734" lon="4.87964">
        <ele>271</ele>
        <time>2014-08-23T14:17:18Z</time>
      </trkpt>
      <trkpt lat="49.68725" lon="4.87949">
        <ele>271</ele>
        <time>2014-08-23T14:17:27Z</time>
      </trkpt>
      <trkpt lat="49.68719" lon="4.87935">
        <ele>271</ele>
        <time>2014-08-23T14:17:31Z</time>
      </trkpt>
      <trkpt lat="49.6871" lon="4.87919">
        <ele>270</ele>
        <time>2014-08-23T14:17:36Z</time>
      </trkpt>
      <trkpt lat="49.68701" lon="4.87901">
        <ele>270</ele>
        <time>2014-08-23T14:17:42Z</time>
      </trkpt>
      <trkpt lat="49.68692" lon="4.87883">
        <ele>271</ele>
        <time>2014-08-23T14:17:48Z</time>
      </trkpt>
      <trkpt lat="49.6868" lon="4.87862">
        <ele>272</ele>
        <time>2014-08-23T14:17:55Z</time>
      </trkpt>
      <trkpt lat="49.68668" lon="4.87854">
        <ele>272</ele>
        <time>2014-08-23T14:18:00Z</time>
      </trkpt>
      <trkpt lat="49.68656" lon="4.87874">
        <ele>272</ele>
        <time>2014-08-23T14:18:06Z</time>
      </trkpt>
      <trkpt lat="49.68644" lon="4.87891">
        <ele>272</ele>
        <time>2014-08-23T14:18:12Z</time>
      </trkpt>
      <trkpt lat="49.68624" lon="4.87906">
        <ele>273</ele>
        <time>2014-08-23T14:18:20Z</time>
      </trkpt>
      <trkpt lat="49.68614" lon="4.87912">
        <ele>273</ele>
        <time>2014-08-23T14:18:24Z</time>
      </trkpt>
      <trkpt lat="49.68596" lon="4.8792">
        <ele>275</ele>
        <time>2014-08-23T14:18:31Z</time>
      </trkpt>
      <trkpt lat="49.68584" lon="4.87926">
        <ele>277</ele>
        <time>2014-08-23T14:18:36Z</time>
      </trkpt>
      <trkpt lat="49.68568" lon="4.87935">
        <ele>281</ele>
        <time>2014-08-23T14:18:43Z</time>
      </trkpt>
      <trkpt lat="49.68556" lon="4.87939">
        <ele>281</ele>
        <time>2014-08-23T14:18:48Z</time>
      </trkpt>
      <trkpt lat="49.68543" lon="4.87947">
        <ele>282</ele>
        <time>2014-08-23T14:18:54Z</time>
      </trkpt>
      <trkpt lat="49.68521" lon="4.87966">
        <ele>280</ele>
        <time>2014-08-23T14:19:04Z</time>
      </trkpt>
      <trkpt lat="49.68516" lon="4.87969">
        <ele>282</ele>
        <time>2014-08-23T14:19:06Z</time>
      </trkpt>
      <trkpt lat="49.68498" lon="4.87976">
        <ele>283</ele>
        <time>2014-08-23T14:19:12Z</time>
      </trkpt>
      <trkpt lat="49.68478" lon="4.87976">
        <ele>281</ele>
        <time>2014-08-23T14:19:18Z</time>
      </trkpt>
      <trkpt lat="49.68459" lon="4.87971">
        <ele>282</ele>
        <time>2014-08-23T14:19:24Z</time>
      </trkpt>
      <trkpt lat="49.68443" lon="4.87969">
        <ele>280</ele>
        <time>2014-08-23T14:19:30Z</time>
      </trkpt>
      <trkpt lat="49.68422" lon="4.87958">
        <ele>284</ele>
        <time>2014-08-23T14:19:38Z</time>
      </trkpt>
      <trkpt lat="49.68401" lon="4.87945">
        <ele>284</ele>
        <time>2014-08-23T14:19:46Z</time>
      </trkpt>
      <trkpt lat="49.68397" lon="4.87941">
        <ele>285</ele>
        <time>2014-08-23T14:19:48Z</time>
      </trkpt>
      <trkpt lat="49.68379" lon="4.87923">
        <ele>288</ele>
        <time>2014-08-23T14:19:56Z</time>
      </trkpt>
      <trkpt lat="49.6836" lon="4.87905">
        <ele>287</ele>
        <time>2014-08-23T14:20:03Z</time>
      </trkpt>
      <trkpt lat="49.68353" lon="4.87897">
        <ele>286</ele>
        <time>2014-08-23T14:20:06Z</time>
      </trkpt>
      <trkpt lat="49.68338" lon="4.87881">
        <ele>283</ele>
        <time>2014-08-23T14:20:12Z</time>
      </trkpt>
      <trkpt lat="49.68324" lon="4.87864">
        <ele>282</ele>
        <time>2014-08-23T14:20:18Z</time>
      </trkpt>
      <trkpt lat="49.68308" lon="4.87847">
        <ele>283</ele>
        <time>2014-08-23T14:20:25Z</time>
      </trkpt>
      <trkpt lat="49.68284" lon="4.87828">
        <ele>283</ele>
        <time>2014-08-23T14:20:34Z</time>
      </trkpt>
      <trkpt lat="49.68269" lon="4.87818">
        <ele>288</ele>
        <time>2014-08-23T14:20:40Z</time>
      </trkpt>
      <trkpt lat="49.68252" lon="4.87807">
        <ele>289</ele>
        <time>2014-08-23T14:20:47Z</time>
      </trkpt>
      <trkpt lat="49.68239" lon="4.87798">
        <ele>290</ele>
        <time>2014-08-23T14:20:52Z</time>
      </trkpt>
      <trkpt lat="49.68234" lon="4.87794">
        <ele>290</ele>
        <time>2014-08-23T14:20:54Z</time>
      </trkpt>
      <trkpt lat="49.6821" lon="4.87773">
        <ele>290</ele>
        <time>2014-08-23T14:21:04Z</time>
      </trkpt>
      <trkpt lat="49.68205" lon="4.8777">
        <ele>290</ele>
        <time>2014-08-23T14:21:06Z</time>
      </trkpt>
      <trkpt lat="49.68183" lon="4.87749">
        <ele>291</ele>
        <time>2014-08-23T14:21:15Z</time>
      </trkpt>
      <trkpt lat="49.68162" lon="4.87739">
        <ele>294</ele>
        <time>2014-08-23T14:21:23Z</time>
      </trkpt>
      <trkpt lat="49.6815" lon="4.87736">
        <ele>292</ele>
        <time>2014-08-23T14:21:27Z</time>
      </trkpt>
      <trkpt lat="49.68142" lon="4.87734">
        <ele>293</ele>
        <time>2014-08-23T14:21:30Z</time>
      </trkpt>
      <trkpt lat="49.68124" lon="4.87731">
        <ele>289</ele>
        <time>2014-08-23T14:21:37Z</time>
      </trkpt>
      <trkpt lat="49.68109" lon="4.87731">
        <ele>287</ele>
        <time>2014-08-23T14:21:42Z</time>
      </trkpt>
      <trkpt lat="49.68094" lon="4.8773">
        <ele>291</ele>
        <time>2014-08-23T14:21:48Z</time>
      </trkpt>
      <trkpt lat="49.68079" lon="4.87733">
        <ele>288</ele>
        <time>2014-08-23T14:21:54Z</time>
      </trkpt>
      <trkpt lat="49.68054" lon="4.87746">
        <ele>290</ele>
        <time>2014-08-23T14:22:03Z</time>
      </trkpt>
      <trkpt lat="49.68038" lon="4.87761">
        <ele>288</ele>
        <time>2014-08-23T14:22:10Z</time>
      </trkpt>
      <trkpt lat="49.68032" lon="4.87764">
        <ele>287</ele>
        <time>2014-08-23T14:22:12Z</time>
      </trkpt>
      <trkpt lat="49.68016" lon="4.87776">
        <ele>286</ele>
        <time>2014-08-23T14:22:18Z</time>
      </trkpt>
      <trkpt lat="49.67998" lon="4.87787">
        <ele>283</ele>
        <time>2014-08-23T14:22:24Z</time>
      </trkpt>
      <trkpt lat="49.67982" lon="4.87798">
        <ele>276</ele>
        <time>2014-08-23T14:22:30Z</time>
      </trkpt>
      <trkpt lat="49.67966" lon="4.87809">
        <ele>274</ele>
        <time>2014-08-23T14:22:36Z</time>
      </trkpt>
      <trkpt lat="49.67952" lon="4.87821">
        <ele>277</ele>
        <time>2014-08-23T14:22:42Z</time>
      </trkpt>
      <trkpt lat="49.67941" lon="4.87833">
        <ele>277</ele>
        <time>2014-08-23T14:22:48Z</time>
      </trkpt>
      <trkpt lat="49.67919" lon="4.87849">
        <ele>277</ele>
        <time>2014-08-23T14:22:57Z</time>
      </trkpt>
      <trkpt lat="49.67914" lon="4.87857">
        <ele>277</ele>
        <time>2014-08-23T14:23:00Z</time>
      </trkpt>
      <trkpt lat="49.67888" lon="4.87881">
        <ele>276</ele>
        <time>2014-08-23T14:23:11Z</time>
      </trkpt>
      <trkpt lat="49.67885" lon="4.87883">
        <ele>275</ele>
        <time>2014-08-23T14:23:12Z</time>
      </trkpt>
      <trkpt lat="49.6787" lon="4.87898">
        <ele>277</ele>
        <time>2014-08-23T14:23:18Z</time>
      </trkpt>
      <trkpt lat="49.67857" lon="4.87914">
        <ele>279</ele>
        <time>2014-08-23T14:23:24Z</time>
      </trkpt>
      <trkpt lat="49.6784" lon="4.87929">
        <ele>274</ele>
        <time>2014-08-23T14:23:31Z</time>
      </trkpt>
      <trkpt lat="49.67825" lon="4.87943">
        <ele>275</ele>
        <time>2014-08-23T14:23:37Z</time>
      </trkpt>
      <trkpt lat="49.67808" lon="4.87956">
        <ele>276</ele>
        <time>2014-08-23T14:23:44Z</time>
      </trkpt>
      <trkpt lat="49.67799" lon="4.87964">
        <ele>275</ele>
        <time>2014-08-23T14:23:48Z</time>
      </trkpt>
      <trkpt lat="49.67787" lon="4.87977">
        <ele>276</ele>
        <time>2014-08-23T14:23:54Z</time>
      </trkpt>
      <trkpt lat="49.67774" lon="4.87989">
        <ele>278</ele>
        <time>2014-08-23T14:24:00Z</time>
      </trkpt>
      <trkpt lat="49.67755" lon="4.88002">
        <ele>282</ele>
        <time>2014-08-23T14:24:08Z</time>
      </trkpt>
      <trkpt lat="49.67746" lon="4.88011">
        <ele>284</ele>
        <time>2014-08-23T14:24:12Z</time>
      </trkpt>
      <trkpt lat="49.67732" lon="4.88018">
        <ele>289</ele>
        <time>2014-08-23T14:24:18Z</time>
      </trkpt>
      <trkpt lat="49.67719" lon="4.88021">
        <ele>289</ele>
        <time>2014-08-23T14:24:24Z</time>
      </trkpt>
      <trkpt lat="49.67705" lon="4.88025">
        <ele>290</ele>
        <time>2014-08-23T14:24:30Z</time>
      </trkpt>
      <trkpt lat="49.6769" lon="4.88027">
        <ele>290</ele>
        <time>2014-08-23T14:24:36Z</time>
      </trkpt>
      <trkpt lat="49.67674" lon="4.88028">
        <ele>292</ele>
        <time>2014-08-23T14:24:42Z</time>
      </trkpt>
      <trkpt lat="49.67657" lon="4.88033">
        <ele>294</ele>
        <time>2014-08-23T14:24:48Z</time>
      </trkpt>
      <trkpt lat="49.67639" lon="4.88035">
        <ele>293</ele>
        <time>2014-08-23T14:24:54Z</time>
      </trkpt>
      <trkpt lat="49.67623" lon="4.88034">
        <ele>295</ele>
        <time>2014-08-23T14:25:00Z</time>
      </trkpt>
      <trkpt lat="49.67592" lon="4.88036">
        <ele>296</ele>
        <time>2014-08-23T14:25:10Z</time>
      </trkpt>
      <trkpt lat="49.67586" lon="4.88033">
        <ele>293</ele>
        <time>2014-08-23T14:25:12Z</time>
      </trkpt>
      <trkpt lat="49.67559" lon="4.88024">
        <ele>287</ele>
        <time>2014-08-23T14:25:20Z</time>
      </trkpt>
      <trkpt lat="49.67543" lon="4.88019">
        <ele>286</ele>
        <time>2014-08-23T14:25:25Z</time>
      </trkpt>
      <trkpt lat="49.67528" lon="4.88013">
        <ele>285</ele>
        <time>2014-08-23T14:25:30Z</time>
      </trkpt>
      <trkpt lat="49.67501" lon="4.88002">
        <ele>283</ele>
        <time>2014-08-23T14:25:40Z</time>
      </trkpt>
      <trkpt lat="49.67495" lon="4.88001">
        <ele>283</ele>
        <time>2014-08-23T14:25:42Z</time>
      </trkpt>
      <trkpt lat="49.67484" lon="4.87988">
        <ele>280</ele>
        <time>2014-08-23T14:25:48Z</time>
      </trkpt>
      <trkpt lat="49.67494" lon="4.87936">
        <ele>277</ele>
        <time>2014-08-23T14:25:59Z</time>
      </trkpt>
      <trkpt lat="49.67494" lon="4.87931">
        <ele>277</ele>
        <time>2014-08-23T14:26:00Z</time>
      </trkpt>
      <trkpt lat="49.67493" lon="4.879">
        <ele>276</ele>
        <time>2014-08-23T14:26:06Z</time>
      </trkpt>
      <trkpt lat="49.67485" lon="4.87864">
        <ele>274</ele>
        <time>2014-08-23T14:26:13Z</time>
      </trkpt>
      <trkpt lat="49.67477" lon="4.8783">
        <ele>274</ele>
        <time>2014-08-23T14:26:20Z</time>
      </trkpt>
      <trkpt lat="49.67472" lon="4.87805">
        <ele>274</ele>
        <time>2014-08-23T14:26:25Z</time>
      </trkpt>
      <trkpt lat="49.67468" lon="4.8778">
        <ele>273</ele>
        <time>2014-08-23T14:26:30Z</time>
      </trkpt>
      <trkpt lat="49.67465" lon="4.8775">
        <ele>272</ele>
        <time>2014-08-23T14:26:36Z</time>
      </trkpt>
      <trkpt lat="49.67465" lon="4.87719">
        <ele>271</ele>
        <time>2014-08-23T14:26:42Z</time>
      </trkpt>
      <trkpt lat="49.67466" lon="4.87682">
        <ele>271</ele>
        <time>2014-08-23T14:26:49Z</time>
      </trkpt>
      <trkpt lat="49.67464" lon="4.87656">
        <ele>270</ele>
        <time>2014-08-23T14:26:54Z</time>
      </trkpt>
      <trkpt lat="49.67456" lon="4.876">
        <ele>268</ele>
        <time>2014-08-23T14:27:05Z</time>
      </trkpt>
      <trkpt lat="49.67454" lon="4.8759">
        <ele>266</ele>
        <time>2014-08-23T14:27:07Z</time>
      </trkpt>
      <trkpt lat="49.67448" lon="4.87556">
        <ele>267</ele>
        <time>2014-08-23T14:27:14Z</time>
      </trkpt>
      <trkpt lat="49.67445" lon="4.87537">
        <ele>268</ele>
        <time>2014-08-23T14:27:18Z</time>
      </trkpt>
      <trkpt lat="49.67441" lon="4.87508">
        <ele>268</ele>
        <time>2014-08-23T14:27:24Z</time>
      </trkpt>
      <trkpt lat="49.67432" lon="4.8748">
        <ele>266</ele>
        <time>2014-08-23T14:27:35Z</time>
      </trkpt>
      <trkpt lat="49.67432" lon="4.8748">
        <ele>266</ele>
        <time>2014-08-23T14:27:36Z</time>
      </trkpt>
      <trkpt lat="49.67426" lon="4.87485">
        <ele>265</ele>
        <time>2014-08-23T14:27:42Z</time>
      </trkpt>
      <trkpt lat="49.67406" lon="4.87492">
        <ele>259</ele>
        <time>2014-08-23T14:27:50Z</time>
      </trkpt>
      <trkpt lat="49.67396" lon="4.87496">
        <ele>257</ele>
        <time>2014-08-23T14:27:54Z</time>
      </trkpt>
      <trkpt lat="49.67379" lon="4.87501">
        <ele>256</ele>
        <time>2014-08-23T14:28:04Z</time>
      </trkpt>
      <trkpt lat="49.67379" lon="4.87497">
        <ele>256</ele>
        <time>2014-08-23T14:28:06Z</time>
      </trkpt>
      <trkpt lat="49.6738" lon="4.87493">
        <ele>256</ele>
        <time>2014-08-23T14:28:12Z</time>
      </trkpt>
      <trkpt lat="49.6738" lon="4.87492">
        <ele>256</ele>
        <time>2014-08-23T14:28:18Z</time>
      </trkpt>
      <trkpt lat="49.67381" lon="4.87492">
        <ele>256</ele>
        <time>2014-08-23T14:28:24Z</time>
      </trkpt>
      <trkpt lat="49.67376" lon="4.87468">
        <ele>253</ele>
        <time>2014-08-23T14:28:32Z</time>
      </trkpt>
      <trkpt lat="49.6737" lon="4.87448">
        <ele>253</ele>
        <time>2014-08-23T14:28:36Z</time>
      </trkpt>
      <trkpt lat="49.67363" lon="4.87419">
        <ele>251</ele>
        <time>2014-08-23T14:28:42Z</time>
      </trkpt>
      <trkpt lat="49.67356" lon="4.87391">
        <ele>250</ele>
        <time>2014-08-23T14:28:48Z</time>
      </trkpt>
      <trkpt lat="49.67348" lon="4.87363">
        <ele>250</ele>
        <time>2014-08-23T14:28:54Z</time>
      </trkpt>
      <trkpt lat="49.67338" lon="4.87321">
        <ele>249</ele>
        <time>2014-08-23T14:29:03Z</time>
      </trkpt>
      <trkpt lat="49.67333" lon="4.87309">
        <ele>248</ele>
        <time>2014-08-23T14:29:06Z</time>
      </trkpt>
      <trkpt lat="49.67314" lon="4.87305">
        <ele>244</ele>
        <time>2014-08-23T14:29:14Z</time>
      </trkpt>
      <trkpt lat="49.67304" lon="4.87286">
        <ele>242</ele>
        <time>2014-08-23T14:29:19Z</time>
      </trkpt>
      <trkpt lat="49.67298" lon="4.87256">
        <ele>242</ele>
        <time>2014-08-23T14:29:25Z</time>
      </trkpt>
      <trkpt lat="49.67292" lon="4.87233">
        <ele>244</ele>
        <time>2014-08-23T14:29:30Z</time>
      </trkpt>
      <trkpt lat="49.67285" lon="4.87205">
        <ele>245</ele>
        <time>2014-08-23T14:29:36Z</time>
      </trkpt>
      <trkpt lat="49.67276" lon="4.8717">
        <ele>244</ele>
        <time>2014-08-23T14:29:43Z</time>
      </trkpt>
      <trkpt lat="49.67268" lon="4.8714">
        <ele>245</ele>
        <time>2014-08-23T14:29:49Z</time>
      </trkpt>
      <trkpt lat="49.67262" lon="4.87115">
        <ele>244</ele>
        <time>2014-08-23T14:29:54Z</time>
      </trkpt>
      <trkpt lat="49.67255" lon="4.87088">
        <ele>247</ele>
        <time>2014-08-23T14:30:00Z</time>
      </trkpt>
      <trkpt lat="49.67251" lon="4.87062">
        <ele>246</ele>
        <time>2014-08-23T14:30:06Z</time>
      </trkpt>
      <trkpt lat="49.6724" lon="4.87054">
        <ele>248</ele>
        <time>2014-08-23T14:30:16Z</time>
      </trkpt>
      <trkpt lat="49.67238" lon="4.87057">
        <ele>246</ele>
        <time>2014-08-23T14:30:18Z</time>
      </trkpt>
      <trkpt lat="49.67228" lon="4.87036">
        <ele>249</ele>
        <time>2014-08-23T14:30:24Z</time>
      </trkpt>
      <trkpt lat="49.67221" lon="4.87004">
        <ele>252</ele>
        <time>2014-08-23T14:30:30Z</time>
      </trkpt>
      <trkpt lat="49.67208" lon="4.86954">
        <ele>254</ele>
        <time>2014-08-23T14:30:40Z</time>
      </trkpt>
      <trkpt lat="49.67206" lon="4.86944">
        <ele>253</ele>
        <time>2014-08-23T14:30:42Z</time>
      </trkpt>
      <trkpt lat="49.67192" lon="4.86892">
        <ele>253</ele>
        <time>2014-08-23T14:30:53Z</time>
      </trkpt>
      <trkpt lat="49.67189" lon="4.86883">
        <ele>253</ele>
        <time>2014-08-23T14:30:55Z</time>
      </trkpt>
      <trkpt lat="49.67182" lon="4.86859">
        <ele>249</ele>
        <time>2014-08-23T14:31:00Z</time>
      </trkpt>
      <trkpt lat="49.67173" lon="4.8683">
        <ele>245</ele>
        <time>2014-08-23T14:31:06Z</time>
      </trkpt>
      <trkpt lat="49.67164" lon="4.86803">
        <ele>243</ele>
        <time>2014-08-23T14:31:12Z</time>
      </trkpt>
      <trkpt lat="49.6716" lon="4.86772">
        <ele>245</ele>
        <time>2014-08-23T14:31:18Z</time>
      </trkpt>
      <trkpt lat="49.6716" lon="4.86739">
        <ele>244</ele>
        <time>2014-08-23T14:31:24Z</time>
      </trkpt>
      <trkpt lat="49.67161" lon="4.8671">
        <ele>242</ele>
        <time>2014-08-23T14:31:30Z</time>
      </trkpt>
      <trkpt lat="49.67157" lon="4.8668">
        <ele>243</ele>
        <time>2014-08-23T14:31:36Z</time>
      </trkpt>
      <trkpt lat="49.67148" lon="4.86651">
        <ele>245</ele>
        <time>2014-08-23T14:31:42Z</time>
      </trkpt>
      <trkpt lat="49.67143" lon="4.8662">
        <ele>244</ele>
        <time>2014-08-23T14:31:48Z</time>
      </trkpt>
      <trkpt lat="49.67138" lon="4.86589">
        <ele>245</ele>
        <time>2014-08-23T14:31:54Z</time>
      </trkpt>
      <trkpt lat="49.67134" lon="4.8656">
        <ele>247</ele>
        <time>2014-08-23T14:32:00Z</time>
      </trkpt>
      <trkpt lat="49.67126" lon="4.86516">
        <ele>249</ele>
        <time>2014-08-23T14:32:09Z</time>
      </trkpt>
      <trkpt lat="49.67121" lon="4.86507">
        <ele>247</ele>
        <time>2014-08-23T14:32:12Z</time>
      </trkpt>
      <trkpt lat="49.67101" lon="4.86503">
        <ele>235</ele>
        <time>2014-08-23T14:32:22Z</time>
      </trkpt>
      <trkpt lat="49.67098" lon="4.86495">
        <ele>236</ele>
        <time>2014-08-23T14:32:24Z</time>
      </trkpt>
      <trkpt lat="49.67093" lon="4.86467">
        <ele>236</ele>
        <time>2014-08-23T14:32:30Z</time>
      </trkpt>
      <trkpt lat="49.67088" lon="4.86442">
        <ele>238</ele>
        <time>2014-08-23T14:32:36Z</time>
      </trkpt>
      <trkpt lat="49.67085" lon="4.86416">
        <ele>241</ele>
        <time>2014-08-23T14:32:42Z</time>
      </trkpt>
      <trkpt lat="49.67083" lon="4.86388">
        <ele>241</ele>
        <time>2014-08-23T14:32:48Z</time>
      </trkpt>
      <trkpt lat="49.67079" lon="4.86339">
        <ele>241</ele>
        <time>2014-08-23T14:32:59Z</time>
      </trkpt>
      <trkpt lat="49.67081" lon="4.86315">
        <ele>235</ele>
        <time>2014-08-23T14:33:05Z</time>
      </trkpt>
      <trkpt lat="49.67075" lon="4.86303">
        <ele>234</ele>
        <time>2014-08-23T14:33:10Z</time>
      </trkpt>
      <trkpt lat="49.67073" lon="4.86298">
        <ele>233</ele>
        <time>2014-08-23T14:33:12Z</time>
      </trkpt>
      <trkpt lat="49.67057" lon="4.86273">
        <ele>232</ele>
        <time>2014-08-23T14:33:22Z</time>
      </trkpt>
      <trkpt lat="49.67051" lon="4.86261">
        <ele>227</ele>
        <time>2014-08-23T14:33:25Z</time>
      </trkpt>
      <trkpt lat="49.6704" lon="4.86241">
        <ele>225</ele>
        <time>2014-08-23T14:33:30Z</time>
      </trkpt>
      <trkpt lat="49.67026" lon="4.86223">
        <ele>224</ele>
        <time>2014-08-23T14:33:36Z</time>
      </trkpt>
      <trkpt lat="49.67011" lon="4.86207">
        <ele>223</ele>
        <time>2014-08-23T14:33:42Z</time>
      </trkpt>
      <trkpt lat="49.66995" lon="4.86192">
        <ele>221</ele>
        <time>2014-08-23T14:33:48Z</time>
      </trkpt>
      <trkpt lat="49.66976" lon="4.86171">
        <ele>219</ele>
        <time>2014-08-23T14:33:56Z</time>
      </trkpt>
      <trkpt lat="49.66966" lon="4.86161">
        <ele>217</ele>
        <time>2014-08-23T14:34:00Z</time>
      </trkpt>
      <trkpt lat="49.66952" lon="4.86146">
        <ele>215</ele>
        <time>2014-08-23T14:34:06Z</time>
      </trkpt>
      <trkpt lat="49.66937" lon="4.8613">
        <ele>213</ele>
        <time>2014-08-23T14:34:12Z</time>
      </trkpt>
      <trkpt lat="49.66921" lon="4.86114">
        <ele>211</ele>
        <time>2014-08-23T14:34:18Z</time>
      </trkpt>
      <trkpt lat="49.66907" lon="4.861">
        <ele>209</ele>
        <time>2014-08-23T14:34:24Z</time>
      </trkpt>
      <trkpt lat="49.66902" lon="4.86099">
        <ele>208</ele>
        <time>2014-08-23T14:34:32Z</time>
      </trkpt>
      <trkpt lat="49.669" lon="4.861">
        <ele>207</ele>
        <time>2014-08-23T14:34:37Z</time>
      </trkpt>
      <trkpt lat="49.66898" lon="4.86096">
        <ele>207</ele>
        <time>2014-08-23T14:34:44Z</time>
      </trkpt>
      <trkpt lat="49.6689" lon="4.86097">
        <ele>205</ele>
        <time>2014-08-23T14:34:48Z</time>
      </trkpt>
      <trkpt lat="49.66878" lon="4.86118">
        <ele>204</ele>
        <time>2014-08-23T14:34:54Z</time>
      </trkpt>
      <trkpt lat="49.66866" lon="4.86148">
        <ele>203</ele>
        <time>2014-08-23T14:35:02Z</time>
      </trkpt>
      <trkpt lat="49.66861" lon="4.86165">
        <ele>202</ele>
        <time>2014-08-23T14:35:06Z</time>
      </trkpt>
      <trkpt lat="49.66853" lon="4.86191">
        <ele>200</ele>
        <time>2014-08-23T14:35:12Z</time>
      </trkpt>
      <trkpt lat="49.66845" lon="4.86216">
        <ele>199</ele>
        <time>2014-08-23T14:35:18Z</time>
      </trkpt>
      <trkpt lat="49.66836" lon="4.86243">
        <ele>197</ele>
        <time>2014-08-23T14:35:24Z</time>
      </trkpt>
      <trkpt lat="49.66823" lon="4.86278">
        <ele>196</ele>
        <time>2014-08-23T14:35:32Z</time>
      </trkpt>
      <trkpt lat="49.66817" lon="4.86296">
        <ele>195</ele>
        <time>2014-08-23T14:35:36Z</time>
      </trkpt>
      <trkpt lat="49.66807" lon="4.86321">
        <ele>193</ele>
        <time>2014-08-23T14:35:42Z</time>
      </trkpt>
      <trkpt lat="49.66798" lon="4.86346">
        <ele>191</ele>
        <time>2014-08-23T14:35:48Z</time>
      </trkpt>
      <trkpt lat="49.66789" lon="4.8637">
        <ele>190</ele>
        <time>2014-08-23T14:35:54Z</time>
      </trkpt>
      <trkpt lat="49.66773" lon="4.86415">
        <ele>187</ele>
        <time>2014-08-23T14:36:05Z</time>
      </trkpt>
      <trkpt lat="49.6677" lon="4.86423">
        <ele>187</ele>
        <time>2014-08-23T14:36:07Z</time>
      </trkpt>
      <trkpt lat="49.66763" lon="4.86443">
        <ele>186</ele>
        <time>2014-08-23T14:36:12Z</time>
      </trkpt>
      <trkpt lat="49.66759" lon="4.86471">
        <ele>182</ele>
        <time>2014-08-23T14:36:18Z</time>
      </trkpt>
      <trkpt lat="49.66753" lon="4.86522">
        <ele>181</ele>
        <time>2014-08-23T14:36:29Z</time>
      </trkpt>
      <trkpt lat="49.66751" lon="4.86531">
        <ele>182</ele>
        <time>2014-08-23T14:36:31Z</time>
      </trkpt>
      <trkpt lat="49.66748" lon="4.86558">
        <ele>181</ele>
        <time>2014-08-23T14:36:37Z</time>
      </trkpt>
      <trkpt lat="49.66742" lon="4.86581">
        <ele>181</ele>
        <time>2014-08-23T14:36:42Z</time>
      </trkpt>
      <trkpt lat="49.66732" lon="4.86613">
        <ele>182</ele>
        <time>2014-08-23T14:36:49Z</time>
      </trkpt>
      <trkpt lat="49.66723" lon="4.86641">
        <ele>180</ele>
        <time>2014-08-23T14:36:55Z</time>
      </trkpt>
      <trkpt lat="49.66714" lon="4.86682">
        <ele>178</ele>
        <time>2014-08-23T14:37:03Z</time>
      </trkpt>
      <trkpt lat="49.66709" lon="4.86703">
        <ele>177</ele>
        <time>2014-08-23T14:37:07Z</time>
      </trkpt>
      <trkpt lat="49.66707" lon="4.8673">
        <ele>177</ele>
        <time>2014-08-23T14:37:12Z</time>
      </trkpt>
      <trkpt lat="49.66703" lon="4.86761">
        <ele>176</ele>
        <time>2014-08-23T14:37:18Z</time>
      </trkpt>
      <trkpt lat="49.66697" lon="4.86797">
        <ele>176</ele>
        <time>2014-08-23T14:37:25Z</time>
      </trkpt>
      <trkpt lat="49.66692" lon="4.86833">
        <ele>176</ele>
        <time>2014-08-23T14:37:32Z</time>
      </trkpt>
      <trkpt lat="49.66689" lon="4.86837">
        <ele>173</ele>
        <time>2014-08-23T14:37:36Z</time>
      </trkpt>
      <trkpt lat="49.6668" lon="4.86835">
        <ele>171</ele>
        <time>2014-08-23T14:37:45Z</time>
      </trkpt>
      <trkpt lat="49.66678" lon="4.86836">
        <ele>171</ele>
        <time>2014-08-23T14:37:48Z</time>
      </trkpt>
      <trkpt lat="49.66672" lon="4.86837">
        <ele>170</ele>
        <time>2014-08-23T14:37:54Z</time>
      </trkpt>
      <trkpt lat="49.66661" lon="4.86841">
        <ele>168</ele>
        <time>2014-08-23T14:38:00Z</time>
      </trkpt>
      <trkpt lat="49.66651" lon="4.86843">
        <ele>167</ele>
        <time>2014-08-23T14:38:08Z</time>
      </trkpt>
      <trkpt lat="49.66646" lon="4.86844">
        <ele>167</ele>
        <time>2014-08-23T14:38:12Z</time>
      </trkpt>
      <trkpt lat="49.66637" lon="4.86847">
        <ele>166</ele>
        <time>2014-08-23T14:38:18Z</time>
      </trkpt>
      <trkpt lat="49.66623" lon="4.86851">
        <ele>166</ele>
        <time>2014-08-23T14:38:24Z</time>
      </trkpt>
      <trkpt lat="49.66613" lon="4.86854">
        <ele>165</ele>
        <time>2014-08-23T14:38:31Z</time>
      </trkpt>
      <trkpt lat="49.666" lon="4.86856">
        <ele>165</ele>
        <time>2014-08-23T14:38:36Z</time>
      </trkpt>
      <trkpt lat="49.66586" lon="4.86859">
        <ele>163</ele>
        <time>2014-08-23T14:38:42Z</time>
      </trkpt>
      <trkpt lat="49.66572" lon="4.86861">
        <ele>161</ele>
        <time>2014-08-23T14:38:48Z</time>
      </trkpt>
      <trkpt lat="49.66555" lon="4.86864">
        <ele>159</ele>
        <time>2014-08-23T14:38:54Z</time>
      </trkpt>
      <trkpt lat="49.66542" lon="4.86865">
        <ele>159</ele>
        <time>2014-08-23T14:39:00Z</time>
      </trkpt>
      <trkpt lat="49.66532" lon="4.86856">
        <ele>158</ele>
        <time>2014-08-23T14:39:08Z</time>
      </trkpt>
      <trkpt lat="49.66518" lon="4.86825">
        <ele>158</ele>
        <time>2014-08-23T14:39:16Z</time>
      </trkpt>
      <trkpt lat="49.66515" lon="4.86817">
        <ele>158</ele>
        <time>2014-08-23T14:39:18Z</time>
      </trkpt>
      <trkpt lat="49.66505" lon="4.86792">
        <ele>158</ele>
        <time>2014-08-23T14:39:24Z</time>
      </trkpt>
      <trkpt lat="49.66493" lon="4.86767">
        <ele>157</ele>
        <time>2014-08-23T14:39:30Z</time>
      </trkpt>
      <trkpt lat="49.66479" lon="4.86746">
        <ele>156</ele>
        <time>2014-08-23T14:39:36Z</time>
      </trkpt>
      <trkpt lat="49.6646" lon="4.86725">
        <ele>157</ele>
        <time>2014-08-23T14:39:43Z</time>
      </trkpt>
      <trkpt lat="49.66447" lon="4.86711">
        <ele>156</ele>
        <time>2014-08-23T14:39:48Z</time>
      </trkpt>
      <trkpt lat="49.66424" lon="4.86682">
        <ele>161</ele>
        <time>2014-08-23T14:39:58Z</time>
      </trkpt>
      <trkpt lat="49.6642" lon="4.86675">
        <ele>160</ele>
        <time>2014-08-23T14:40:00Z</time>
      </trkpt>
      <trkpt lat="49.664" lon="4.86648">
        <ele>160</ele>
        <time>2014-08-23T14:40:08Z</time>
      </trkpt>
      <trkpt lat="49.66385" lon="4.86626">
        <ele>156</ele>
        <time>2014-08-23T14:40:14Z</time>
      </trkpt>
      <trkpt lat="49.66374" lon="4.86612">
        <ele>156</ele>
        <time>2014-08-23T14:40:18Z</time>
      </trkpt>
      <trkpt lat="49.66359" lon="4.8659">
        <ele>156</ele>
        <time>2014-08-23T14:40:24Z</time>
      </trkpt>
      <trkpt lat="49.66345" lon="4.86568">
        <ele>157</ele>
        <time>2014-08-23T14:40:30Z</time>
      </trkpt>
      <trkpt lat="49.66332" lon="4.86547">
        <ele>158</ele>
        <time>2014-08-23T14:40:36Z</time>
      </trkpt>
      <trkpt lat="49.66319" lon="4.86525">
        <ele>157</ele>
        <time>2014-08-23T14:40:42Z</time>
      </trkpt>
      <trkpt lat="49.66306" lon="4.86501">
        <ele>157</ele>
        <time>2014-08-23T14:40:48Z</time>
      </trkpt>
      <trkpt lat="49.66292" lon="4.86474">
        <ele>158</ele>
        <time>2014-08-23T14:40:55Z</time>
      </trkpt>
      <trkpt lat="49.66282" lon="4.86454">
        <ele>158</ele>
        <time>2014-08-23T14:41:00Z</time>
      </trkpt>
      <trkpt lat="49.66267" lon="4.86427">
        <ele>158</ele>
        <time>2014-08-23T14:41:07Z</time>
      </trkpt>
      <trkpt lat="49.66253" lon="4.86399">
        <ele>158</ele>
        <time>2014-08-23T14:41:14Z</time>
      </trkpt>
      <trkpt lat="49.66245" lon="4.86384">
        <ele>157</ele>
        <time>2014-08-23T14:41:18Z</time>
      </trkpt>
      <trkpt lat="49.66224" lon="4.86344">
        <ele>157</ele>
        <time>2014-08-23T14:41:28Z</time>
      </trkpt>
      <trkpt lat="49.66219" lon="4.86331">
        <ele>158</ele>
        <time>2014-08-23T14:41:31Z</time>
      </trkpt>
      <trkpt lat="49.66208" lon="4.86307">
        <ele>158</ele>
        <time>2014-08-23T14:41:37Z</time>
      </trkpt>
      <trkpt lat="49.66195" lon="4.86279">
        <ele>159</ele>
        <time>2014-08-23T14:41:44Z</time>
      </trkpt>
      <trkpt lat="49.66188" lon="4.86262">
        <ele>160</ele>
        <time>2014-08-23T14:41:48Z</time>
      </trkpt>
      <trkpt lat="49.66177" lon="4.86237">
        <ele>160</ele>
        <time>2014-08-23T14:41:54Z</time>
      </trkpt>
      <trkpt lat="49.66157" lon="4.86196">
        <ele>159</ele>
        <time>2014-08-23T14:42:04Z</time>
      </trkpt>
      <trkpt lat="49.66153" lon="4.86187">
        <ele>158</ele>
        <time>2014-08-23T14:42:06Z</time>
      </trkpt>
      <trkpt lat="49.66137" lon="4.86155">
        <ele>158</ele>
        <time>2014-08-23T14:42:14Z</time>
      </trkpt>
      <trkpt lat="49.66129" lon="4.86139">
        <ele>158</ele>
        <time>2014-08-23T14:42:18Z</time>
      </trkpt>
      <trkpt lat="49.66115" lon="4.86106">
        <ele>159</ele>
        <time>2014-08-23T14:42:26Z</time>
      </trkpt>
      <trkpt lat="49.66107" lon="4.86089">
        <ele>159</ele>
        <time>2014-08-23T14:42:30Z</time>
      </trkpt>
      <trkpt lat="49.66094" lon="4.8606">
        <ele>158</ele>
        <time>2014-08-23T14:42:37Z</time>
      </trkpt>
      <trkpt lat="49.66085" lon="4.8604">
        <ele>158</ele>
        <time>2014-08-23T14:42:42Z</time>
      </trkpt>
      <trkpt lat="49.66072" lon="4.86016">
        <ele>158</ele>
        <time>2014-08-23T14:42:48Z</time>
      </trkpt>
      <trkpt lat="49.6606" lon="4.85993">
        <ele>159</ele>
        <time>2014-08-23T14:42:54Z</time>
      </trkpt>
      <trkpt lat="49.66038" lon="4.85956">
        <ele>159</ele>
        <time>2014-08-23T14:43:04Z</time>
      </trkpt>
      <trkpt lat="49.66029" lon="4.85942">
        <ele>159</ele>
        <time>2014-08-23T14:43:08Z</time>
      </trkpt>
      <trkpt lat="49.66009" lon="4.8591">
        <ele>160</ele>
        <time>2014-08-23T14:43:17Z</time>
      </trkpt>
      <trkpt lat="49.66002" lon="4.85899">
        <ele>161</ele>
        <time>2014-08-23T14:43:20Z</time>
      </trkpt>
      <trkpt lat="49.65993" lon="4.85885">
        <ele>161</ele>
        <time>2014-08-23T14:43:24Z</time>
      </trkpt>
      <trkpt lat="49.65977" lon="4.8586">
        <ele>161</ele>
        <time>2014-08-23T14:43:31Z</time>
      </trkpt>
      <trkpt lat="49.6596" lon="4.85843">
        <ele>160</ele>
        <time>2014-08-23T14:43:37Z</time>
      </trkpt>
      <trkpt lat="49.65945" lon="4.85831">
        <ele>160</ele>
        <time>2014-08-23T14:43:42Z</time>
      </trkpt>
      <trkpt lat="49.65926" lon="4.8582">
        <ele>159</ele>
        <time>2014-08-23T14:43:48Z</time>
      </trkpt>
      <trkpt lat="49.65907" lon="4.85808">
        <ele>159</ele>
        <time>2014-08-23T14:43:54Z</time>
      </trkpt>
      <trkpt lat="49.65877" lon="4.85787">
        <ele>158</ele>
        <time>2014-08-23T14:44:04Z</time>
      </trkpt>
      <trkpt lat="49.65857" lon="4.85771">
        <ele>157</ele>
        <time>2014-08-23T14:44:11Z</time>
      </trkpt>
      <trkpt lat="49.65848" lon="4.85763">
        <ele>156</ele>
        <time>2014-08-23T14:44:14Z</time>
      </trkpt>
      <trkpt lat="49.65836" lon="4.85753">
        <ele>156</ele>
        <time>2014-08-23T14:44:18Z</time>
      </trkpt>
      <trkpt lat="49.65818" lon="4.85738">
        <ele>157</ele>
        <time>2014-08-23T14:44:24Z</time>
      </trkpt>
      <trkpt lat="49.65797" lon="4.8572">
        <ele>156</ele>
        <time>2014-08-23T14:44:31Z</time>
      </trkpt>
      <trkpt lat="49.65778" lon="4.85706">
        <ele>156</ele>
        <time>2014-08-23T14:44:37Z</time>
      </trkpt>
      <trkpt lat="49.65758" lon="4.8569">
        <ele>157</ele>
        <time>2014-08-23T14:44:44Z</time>
      </trkpt>
      <trkpt lat="49.65741" lon="4.85674">
        <ele>157</ele>
        <time>2014-08-23T14:44:50Z</time>
      </trkpt>
      <trkpt lat="49.65722" lon="4.85656">
        <ele>157</ele>
        <time>2014-08-23T14:44:57Z</time>
      </trkpt>
      <trkpt lat="49.65702" lon="4.85637">
        <ele>157</ele>
        <time>2014-08-23T14:45:04Z</time>
      </trkpt>
      <trkpt lat="49.65686" lon="4.85621">
        <ele>157</ele>
        <time>2014-08-23T14:45:10Z</time>
      </trkpt>
      <trkpt lat="49.65666" lon="4.85602">
        <ele>157</ele>
        <time>2014-08-23T14:45:17Z</time>
      </trkpt>
      <trkpt lat="49.65663" lon="4.85599">
        <ele>157</ele>
        <time>2014-08-23T14:45:18Z</time>
      </trkpt>
      <trkpt lat="49.65645" lon="4.85582">
        <ele>156</ele>
        <time>2014-08-23T14:45:24Z</time>
      </trkpt>
      <trkpt lat="49.65628" lon="4.85566">
        <ele>156</ele>
        <time>2014-08-23T14:45:30Z</time>
      </trkpt>
      <trkpt lat="49.65608" lon="4.85546">
        <ele>155</ele>
        <time>2014-08-23T14:45:37Z</time>
      </trkpt>
      <trkpt lat="49.6559" lon="4.8553">
        <ele>155</ele>
        <time>2014-08-23T14:45:43Z</time>
      </trkpt>
      <trkpt lat="49.65569" lon="4.85511">
        <ele>155</ele>
        <time>2014-08-23T14:45:50Z</time>
      </trkpt>
      <trkpt lat="49.6555" lon="4.85492">
        <ele>156</ele>
        <time>2014-08-23T14:45:57Z</time>
      </trkpt>
      <trkpt lat="49.6553" lon="4.85473">
        <ele>155</ele>
        <time>2014-08-23T14:46:04Z</time>
      </trkpt>
      <trkpt lat="49.65514" lon="4.85455">
        <ele>156</ele>
        <time>2014-08-23T14:46:10Z</time>
      </trkpt>
      <trkpt lat="49.65494" lon="4.85434">
        <ele>156</ele>
        <time>2014-08-23T14:46:17Z</time>
      </trkpt>
      <trkpt lat="49.65491" lon="4.85431">
        <ele>156</ele>
        <time>2014-08-23T14:46:18Z</time>
      </trkpt>
      <trkpt lat="49.65473" lon="4.85413">
        <ele>156</ele>
        <time>2014-08-23T14:46:24Z</time>
      </trkpt>
      <trkpt lat="49.65456" lon="4.85395">
        <ele>156</ele>
        <time>2014-08-23T14:46:30Z</time>
      </trkpt>
      <trkpt lat="49.65437" lon="4.85375">
        <ele>156</ele>
        <time>2014-08-23T14:46:37Z</time>
      </trkpt>
      <trkpt lat="49.65423" lon="4.85361">
        <ele>156</ele>
        <time>2014-08-23T14:46:42Z</time>
      </trkpt>
      <trkpt lat="49.65407" lon="4.85343">
        <ele>156</ele>
        <time>2014-08-23T14:46:48Z</time>
      </trkpt>
      <trkpt lat="49.65391" lon="4.85325">
        <ele>157</ele>
        <time>2014-08-23T14:46:54Z</time>
      </trkpt>
      <trkpt lat="49.65376" lon="4.85305">
        <ele>157</ele>
        <time>2014-08-23T14:47:00Z</time>
      </trkpt>
      <trkpt lat="49.6536" lon="4.85278">
        <ele>157</ele>
        <time>2014-08-23T14:47:07Z</time>
      </trkpt>
      <trkpt lat="49.65347" lon="4.85254">
        <ele>157</ele>
        <time>2014-08-23T14:47:13Z</time>
      </trkpt>
      <trkpt lat="49.65337" lon="4.85231">
        <ele>158</ele>
        <time>2014-08-23T14:47:18Z</time>
      </trkpt>
      <trkpt lat="49.65327" lon="4.85199">
        <ele>159</ele>
        <time>2014-08-23T14:47:25Z</time>
      </trkpt>
      <trkpt lat="49.6532" lon="4.85172">
        <ele>159</ele>
        <time>2014-08-23T14:47:31Z</time>
      </trkpt>
      <trkpt lat="49.65315" lon="4.85149">
        <ele>159</ele>
        <time>2014-08-23T14:47:36Z</time>
      </trkpt>
      <trkpt lat="49.65311" lon="4.85118">
        <ele>160</ele>
        <time>2014-08-23T14:47:43Z</time>
      </trkpt>
      <trkpt lat="49.65309" lon="4.85096">
        <ele>160</ele>
        <time>2014-08-23T14:47:48Z</time>
      </trkpt>
      <trkpt lat="49.65306" lon="4.85068">
        <ele>161</ele>
        <time>2014-08-23T14:47:54Z</time>
      </trkpt>
      <trkpt lat="49.65302" lon="4.85041">
        <ele>163</ele>
        <time>2014-08-23T14:48:00Z</time>
      </trkpt>
      <trkpt lat="49.65299" lon="4.85013">
        <ele>162</ele>
        <time>2014-08-23T14:48:06Z</time>
      </trkpt>
      <trkpt lat="49.65295" lon="4.84985">
        <ele>164</ele>
        <time>2014-08-23T14:48:12Z</time>
      </trkpt>
      <trkpt lat="49.65292" lon="4.84957">
        <ele>164</ele>
        <time>2014-08-23T14:48:18Z</time>
      </trkpt>
      <trkpt lat="49.65288" lon="4.84919">
        <ele>165</ele>
        <time>2014-08-23T14:48:26Z</time>
      </trkpt>
      <trkpt lat="49.65284" lon="4.84891">
        <ele>166</ele>
        <time>2014-08-23T14:48:32Z</time>
      </trkpt>
      <trkpt lat="49.6528" lon="4.84872">
        <ele>167</ele>
        <time>2014-08-23T14:48:36Z</time>
      </trkpt>
      <trkpt lat="49.65277" lon="4.84844">
        <ele>167</ele>
        <time>2014-08-23T14:48:42Z</time>
      </trkpt>
      <trkpt lat="49.65274" lon="4.84817">
        <ele>167</ele>
        <time>2014-08-23T14:48:48Z</time>
      </trkpt>
      <trkpt lat="49.65273" lon="4.8479">
        <ele>167</ele>
        <time>2014-08-23T14:48:54Z</time>
      </trkpt>
      <trkpt lat="49.65275" lon="4.84763">
        <ele>168</ele>
        <time>2014-08-23T14:49:00Z</time>
      </trkpt>
      <trkpt lat="49.65277" lon="4.84732">
        <ele>169</ele>
        <time>2014-08-23T14:49:07Z</time>
      </trkpt>
      <trkpt lat="49.65279" lon="4.84704">
        <ele>170</ele>
        <time>2014-08-23T14:49:13Z</time>
      </trkpt>
      <trkpt lat="49.65281" lon="4.84681">
        <ele>171</ele>
        <time>2014-08-23T14:49:18Z</time>
      </trkpt>
      <trkpt lat="49.65275" lon="4.84638">
        <ele>169</ele>
        <time>2014-08-23T14:49:28Z</time>
      </trkpt>
      <trkpt lat="49.6527" lon="4.84636">
        <ele>169</ele>
        <time>2014-08-23T14:49:30Z</time>
      </trkpt>
      <trkpt lat="49.65254" lon="4.84643">
        <ele>169</ele>
        <time>2014-08-23T14:49:36Z</time>
      </trkpt>
      <trkpt lat="49.65238" lon="4.84648">
        <ele>166</ele>
        <time>2014-08-23T14:49:42Z</time>
      </trkpt>
      <trkpt lat="49.65221" lon="4.84652">
        <ele>163</ele>
        <time>2014-08-23T14:49:48Z</time>
      </trkpt>
      <trkpt lat="49.65203" lon="4.84656">
        <ele>160</ele>
        <time>2014-08-23T14:49:54Z</time>
      </trkpt>
      <trkpt lat="49.65186" lon="4.8466">
        <ele>160</ele>
        <time>2014-08-23T14:50:00Z</time>
      </trkpt>
      <trkpt lat="49.65169" lon="4.84666">
        <ele>158</ele>
        <time>2014-08-23T14:50:06Z</time>
      </trkpt>
      <trkpt lat="49.65152" lon="4.84675">
        <ele>154</ele>
        <time>2014-08-23T14:50:12Z</time>
      </trkpt>
      <trkpt lat="49.65135" lon="4.84681">
        <ele>154</ele>
        <time>2014-08-23T14:50:18Z</time>
      </trkpt>
      <trkpt lat="49.65118" lon="4.84689">
        <ele>154</ele>
        <time>2014-08-23T14:50:24Z</time>
      </trkpt>
      <trkpt lat="49.651" lon="4.84698">
        <ele>153</ele>
        <time>2014-08-23T14:50:30Z</time>
      </trkpt>
      <trkpt lat="49.65081" lon="4.84706">
        <ele>153</ele>
        <time>2014-08-23T14:50:36Z</time>
      </trkpt>
      <trkpt lat="49.65058" lon="4.84718">
        <ele>153</ele>
        <time>2014-08-23T14:50:44Z</time>
      </trkpt>
      <trkpt lat="49.65045" lon="4.84724">
        <ele>152</ele>
        <time>2014-08-23T14:50:48Z</time>
      </trkpt>
      <trkpt lat="49.65027" lon="4.84737">
        <ele>151</ele>
        <time>2014-08-23T14:50:54Z</time>
      </trkpt>
      <trkpt lat="49.65007" lon="4.84764">
        <ele>152</ele>
        <time>2014-08-23T14:51:02Z</time>
      </trkpt>
      <trkpt lat="49.65" lon="4.84782">
        <ele>152</ele>
        <time>2014-08-23T14:51:06Z</time>
      </trkpt>
      <trkpt lat="49.64992" lon="4.84812">
        <ele>155</ele>
        <time>2014-08-23T14:51:13Z</time>
      </trkpt>
      <trkpt lat="49.64989" lon="4.84836">
        <ele>154</ele>
        <time>2014-08-23T14:51:18Z</time>
      </trkpt>
      <trkpt lat="49.64986" lon="4.84864">
        <ele>155</ele>
        <time>2014-08-23T14:51:24Z</time>
      </trkpt>
      <trkpt lat="49.64983" lon="4.8489">
        <ele>158</ele>
        <time>2014-08-23T14:51:30Z</time>
      </trkpt>
      <trkpt lat="49.64981" lon="4.84916">
        <ele>161</ele>
        <time>2014-08-23T14:51:36Z</time>
      </trkpt>
      <trkpt lat="49.6498" lon="4.84945">
        <ele>162</ele>
        <time>2014-08-23T14:51:42Z</time>
      </trkpt>
      <trkpt lat="49.64982" lon="4.84975">
        <ele>167</ele>
        <time>2014-08-23T14:51:48Z</time>
      </trkpt>
      <trkpt lat="49.64984" lon="4.84996">
        <ele>171</ele>
        <time>2014-08-23T14:51:54Z</time>
      </trkpt>
      <trkpt lat="49.64993" lon="4.85027">
        <ele>170</ele>
        <time>2014-08-23T14:52:00Z</time>
      </trkpt>
      <trkpt lat="49.65" lon="4.85072">
        <ele>171</ele>
        <time>2014-08-23T14:52:10Z</time>
      </trkpt>
      <trkpt lat="49.64999" lon="4.85082">
        <ele>171</ele>
        <time>2014-08-23T14:52:12Z</time>
      </trkpt>
      <trkpt lat="49.64999" lon="4.85113">
        <ele>170</ele>
        <time>2014-08-23T14:52:18Z</time>
      </trkpt>
      <trkpt lat="49.65008" lon="4.85167">
        <ele>173</ele>
        <time>2014-08-23T14:52:29Z</time>
      </trkpt>
      <trkpt lat="49.6501" lon="4.85176">
        <ele>175</ele>
        <time>2014-08-23T14:52:31Z</time>
      </trkpt>
      <trkpt lat="49.65016" lon="4.85208">
        <ele>174</ele>
        <time>2014-08-23T14:52:38Z</time>
      </trkpt>
      <trkpt lat="49.65018" lon="4.85226">
        <ele>176</ele>
        <time>2014-08-23T14:52:42Z</time>
      </trkpt>
      <trkpt lat="49.6502" lon="4.85262">
        <ele>178</ele>
        <time>2014-08-23T14:52:52Z</time>
      </trkpt>
      <trkpt lat="49.65024" lon="4.8528">
        <ele>178</ele>
        <time>2014-08-23T14:52:56Z</time>
      </trkpt>
      <trkpt lat="49.65028" lon="4.85296">
        <ele>180</ele>
        <time>2014-08-23T14:53:00Z</time>
      </trkpt>
      <trkpt lat="49.65034" lon="4.85327">
        <ele>181</ele>
        <time>2014-08-23T14:53:07Z</time>
      </trkpt>
      <trkpt lat="49.65038" lon="4.85353">
        <ele>182</ele>
        <time>2014-08-23T14:53:12Z</time>
      </trkpt>
      <trkpt lat="49.65048" lon="4.85407">
        <ele>182</ele>
        <time>2014-08-23T14:53:23Z</time>
      </trkpt>
      <trkpt lat="49.65049" lon="4.85412">
        <ele>180</ele>
        <time>2014-08-23T14:53:24Z</time>
      </trkpt>
      <trkpt lat="49.65056" lon="4.85442">
        <ele>181</ele>
        <time>2014-08-23T14:53:30Z</time>
      </trkpt>
      <trkpt lat="49.65063" lon="4.8547">
        <ele>182</ele>
        <time>2014-08-23T14:53:36Z</time>
      </trkpt>
      <trkpt lat="49.65072" lon="4.855">
        <ele>180</ele>
        <time>2014-08-23T14:53:42Z</time>
      </trkpt>
      <trkpt lat="49.65084" lon="4.85542">
        <ele>177</ele>
        <time>2014-08-23T14:53:51Z</time>
      </trkpt>
      <trkpt lat="49.65081" lon="4.85555">
        <ele>175</ele>
        <time>2014-08-23T14:53:55Z</time>
      </trkpt>
      <trkpt lat="49.65077" lon="4.8557">
        <ele>174</ele>
        <time>2014-08-23T14:54:00Z</time>
      </trkpt>
      <trkpt lat="49.6507" lon="4.85595">
        <ele>178</ele>
        <time>2014-08-23T14:54:10Z</time>
      </trkpt>
      <trkpt lat="49.65069" lon="4.85601">
        <ele>179</ele>
        <time>2014-08-23T14:54:12Z</time>
      </trkpt>
      <trkpt lat="49.65062" lon="4.85616">
        <ele>182</ele>
        <time>2014-08-23T14:54:19Z</time>
      </trkpt>
      <trkpt lat="49.65057" lon="4.85627">
        <ele>186</ele>
        <time>2014-08-23T14:54:24Z</time>
      </trkpt>
      <trkpt lat="49.65055" lon="4.85643">
        <ele>187</ele>
        <time>2014-08-23T14:54:30Z</time>
      </trkpt>
      <trkpt lat="49.65048" lon="4.85661">
        <ele>188</ele>
        <time>2014-08-23T14:54:37Z</time>
      </trkpt>
      <trkpt lat="49.65043" lon="4.85681">
        <ele>194</ele>
        <time>2014-08-23T14:54:45Z</time>
      </trkpt>
      <trkpt lat="49.6504" lon="4.85691">
        <ele>197</ele>
        <time>2014-08-23T14:54:49Z</time>
      </trkpt>
      <trkpt lat="49.65036" lon="4.85706">
        <ele>200</ele>
        <time>2014-08-23T14:54:55Z</time>
      </trkpt>
      <trkpt lat="49.65032" lon="4.85718">
        <ele>203</ele>
        <time>2014-08-23T14:55:00Z</time>
      </trkpt>
      <trkpt lat="49.65029" lon="4.85734">
        <ele>204</ele>
        <time>2014-08-23T14:55:06Z</time>
      </trkpt>
      <trkpt lat="49.65025" lon="4.85755">
        <ele>206</ele>
        <time>2014-08-23T14:55:13Z</time>
      </trkpt>
      <trkpt lat="49.65022" lon="4.85771">
        <ele>210</ele>
        <time>2014-08-23T14:55:19Z</time>
      </trkpt>
      <trkpt lat="49.65021" lon="4.85792">
        <ele>210</ele>
        <time>2014-08-23T14:55:26Z</time>
      </trkpt>
      <trkpt lat="49.65016" lon="4.85807">
        <ele>211</ele>
        <time>2014-08-23T14:55:32Z</time>
      </trkpt>
      <trkpt lat="49.65012" lon="4.85822">
        <ele>214</ele>
        <time>2014-08-23T14:55:38Z</time>
      </trkpt>
      <trkpt lat="49.65009" lon="4.85831">
        <ele>217</ele>
        <time>2014-08-23T14:55:43Z</time>
      </trkpt>
      <trkpt lat="49.65007" lon="4.85843">
        <ele>218</ele>
        <time>2014-08-23T14:55:48Z</time>
      </trkpt>
      <trkpt lat="49.65002" lon="4.85858">
        <ele>218</ele>
        <time>2014-08-23T14:55:54Z</time>
      </trkpt>
      <trkpt lat="49.64997" lon="4.85877">
        <ele>219</ele>
        <time>2014-08-23T14:56:01Z</time>
      </trkpt>
      <trkpt lat="49.64993" lon="4.85894">
        <ele>225</ele>
        <time>2014-08-23T14:56:07Z</time>
      </trkpt>
      <trkpt lat="49.64989" lon="4.85909">
        <ele>230</ele>
        <time>2014-08-23T14:56:13Z</time>
      </trkpt>
      <trkpt lat="49.6498" lon="4.85927">
        <ele>226</ele>
        <time>2014-08-23T14:56:21Z</time>
      </trkpt>
      <trkpt lat="49.64977" lon="4.85934">
        <ele>226</ele>
        <time>2014-08-23T14:56:25Z</time>
      </trkpt>
      <trkpt lat="49.64973" lon="4.85944">
        <ele>226</ele>
        <time>2014-08-23T14:56:31Z</time>
      </trkpt>
      <trkpt lat="49.64968" lon="4.85959">
        <ele>224</ele>
        <time>2014-08-23T14:56:40Z</time>
      </trkpt>
      <trkpt lat="49.64967" lon="4.85962">
        <ele>225</ele>
        <time>2014-08-23T14:56:42Z</time>
      </trkpt>
      <trkpt lat="49.64962" lon="4.8597">
        <ele>226</ele>
        <time>2014-08-23T14:56:48Z</time>
      </trkpt>
      <trkpt lat="49.64957" lon="4.85976">
        <ele>226</ele>
        <time>2014-08-23T14:56:54Z</time>
      </trkpt>
      <trkpt lat="49.64952" lon="4.85981">
        <ele>228</ele>
        <time>2014-08-23T14:57:00Z</time>
      </trkpt>
      <trkpt lat="49.64945" lon="4.8599">
        <ele>229</ele>
        <time>2014-08-23T14:57:10Z</time>
      </trkpt>
      <trkpt lat="49.64944" lon="4.85991">
        <ele>230</ele>
        <time>2014-08-23T14:57:12Z</time>
      </trkpt>
      <trkpt lat="49.64939" lon="4.85998">
        <ele>235</ele>
        <time>2014-08-23T14:57:21Z</time>
      </trkpt>
      <trkpt lat="49.64936" lon="4.86001">
        <ele>237</ele>
        <time>2014-08-23T14:57:27Z</time>
      </trkpt>
      <trkpt lat="49.64935" lon="4.86003">
        <ele>238</ele>
        <time>2014-08-23T14:57:31Z</time>
      </trkpt>
      <trkpt lat="49.64932" lon="4.86004">
        <ele>241</ele>
        <time>2014-08-23T14:57:38Z</time>
      </trkpt>
      <trkpt lat="49.64926" lon="4.86006">
        <ele>244</ele>
        <time>2014-08-23T14:57:47Z</time>
      </trkpt>
      <trkpt lat="49.64924" lon="4.86007">
        <ele>245</ele>
        <time>2014-08-23T14:57:49Z</time>
      </trkpt>
      <trkpt lat="49.64915" lon="4.86009">
        <ele>246</ele>
        <time>2014-08-23T14:57:55Z</time>
      </trkpt>
      <trkpt lat="49.64905" lon="4.86011">
        <ele>246</ele>
        <time>2014-08-23T14:58:01Z</time>
      </trkpt>
      <trkpt lat="49.64898" lon="4.86015">
        <ele>249</ele>
        <time>2014-08-23T14:58:07Z</time>
      </trkpt>
      <trkpt lat="49.64894" lon="4.86018">
        <ele>252</ele>
        <time>2014-08-23T14:58:12Z</time>
      </trkpt>
      <trkpt lat="49.64885" lon="4.86019">
        <ele>253</ele>
        <time>2014-08-23T14:58:18Z</time>
      </trkpt>
      <trkpt lat="49.64874" lon="4.86022">
        <ele>258</ele>
        <time>2014-08-23T14:58:25Z</time>
      </trkpt>
      <trkpt lat="49.64863" lon="4.86024">
        <ele>259</ele>
        <time>2014-08-23T14:58:31Z</time>
      </trkpt>
      <trkpt lat="49.64852" lon="4.86038">
        <ele>251</ele>
        <time>2014-08-23T14:58:40Z</time>
      </trkpt>
      <trkpt lat="49.64852" lon="4.8604">
        <ele>251</ele>
        <time>2014-08-23T14:58:41Z</time>
      </trkpt>
      <trkpt lat="49.64844" lon="4.86082">
        <ele>249</ele>
        <time>2014-08-23T14:58:52Z</time>
      </trkpt>
      <trkpt lat="49.64843" lon="4.86086">
        <ele>249</ele>
        <time>2014-08-23T14:58:54Z</time>
      </trkpt>
      <trkpt lat="49.64841" lon="4.86114">
        <ele>244</ele>
        <time>2014-08-23T14:59:00Z</time>
      </trkpt>
      <trkpt lat="49.64838" lon="4.86142">
        <ele>245</ele>
        <time>2014-08-23T14:59:05Z</time>
      </trkpt>
      <trkpt lat="49.64831" lon="4.86173">
        <ele>244</ele>
        <time>2014-08-23T14:59:12Z</time>
      </trkpt>
      <trkpt lat="49.64817" lon="4.86215">
        <ele>246</ele>
        <time>2014-08-23T14:59:22Z</time>
      </trkpt>
      <trkpt lat="49.64815" lon="4.86219">
        <ele>248</ele>
        <time>2014-08-23T14:59:24Z</time>
      </trkpt>
      <trkpt lat="49.64802" lon="4.86249">
        <ele>241</ele>
        <time>2014-08-23T14:59:34Z</time>
      </trkpt>
      <trkpt lat="49.64797" lon="4.86267">
        <ele>240</ele>
        <time>2014-08-23T14:59:40Z</time>
      </trkpt>
      <trkpt lat="49.64795" lon="4.86272">
        <ele>241</ele>
        <time>2014-08-23T14:59:42Z</time>
      </trkpt>
      <trkpt lat="49.64788" lon="4.86289">
        <ele>241</ele>
        <time>2014-08-23T14:59:48Z</time>
      </trkpt>
      <trkpt lat="49.64783" lon="4.86309">
        <ele>242</ele>
        <time>2014-08-23T14:59:55Z</time>
      </trkpt>
      <trkpt lat="49.64777" lon="4.8633">
        <ele>241</ele>
        <time>2014-08-23T15:00:03Z</time>
      </trkpt>
      <trkpt lat="49.64773" lon="4.86344">
        <ele>237</ele>
        <time>2014-08-23T15:00:08Z</time>
      </trkpt>
      <trkpt lat="49.64767" lon="4.86365">
        <ele>233</ele>
        <time>2014-08-23T15:00:15Z</time>
      </trkpt>
      <trkpt lat="49.64764" lon="4.86374">
        <ele>234</ele>
        <time>2014-08-23T15:00:18Z</time>
      </trkpt>
      <trkpt lat="49.64757" lon="4.86394">
        <ele>232</ele>
        <time>2014-08-23T15:00:24Z</time>
      </trkpt>
      <trkpt lat="49.64748" lon="4.86437">
        <ele>231</ele>
        <time>2014-08-23T15:00:33Z</time>
      </trkpt>
      <trkpt lat="49.64737" lon="4.86468">
        <ele>230</ele>
        <time>2014-08-23T15:00:41Z</time>
      </trkpt>
      <trkpt lat="49.64735" lon="4.86471">
        <ele>230</ele>
        <time>2014-08-23T15:00:42Z</time>
      </trkpt>
      <trkpt lat="49.64724" lon="4.86491">
        <ele>226</ele>
        <time>2014-08-23T15:00:48Z</time>
      </trkpt>
      <trkpt lat="49.64713" lon="4.86506">
        <ele>221</ele>
        <time>2014-08-23T15:00:54Z</time>
      </trkpt>
      <trkpt lat="49.64704" lon="4.86519">
        <ele>216</ele>
        <time>2014-08-23T15:01:00Z</time>
      </trkpt>
      <trkpt lat="49.64692" lon="4.86532">
        <ele>216</ele>
        <time>2014-08-23T15:01:06Z</time>
      </trkpt>
      <trkpt lat="49.64683" lon="4.86546">
        <ele>215</ele>
        <time>2014-08-23T15:01:12Z</time>
      </trkpt>
      <trkpt lat="49.64673" lon="4.86562">
        <ele>213</ele>
        <time>2014-08-23T15:01:18Z</time>
      </trkpt>
      <trkpt lat="49.6466" lon="4.86587">
        <ele>211</ele>
        <time>2014-08-23T15:01:24Z</time>
      </trkpt>
      <trkpt lat="49.64662" lon="4.86618">
        <ele>207</ele>
        <time>2014-08-23T15:01:30Z</time>
      </trkpt>
      <trkpt lat="49.64651" lon="4.86667">
        <ele>186</ele>
        <time>2014-08-23T15:01:41Z</time>
      </trkpt>
      <trkpt lat="49.64635" lon="4.86685">
        <ele>172</ele>
        <time>2014-08-23T15:01:47Z</time>
      </trkpt>
      <trkpt lat="49.64632" lon="4.86688">
        <ele>169</ele>
        <time>2014-08-23T15:01:48Z</time>
      </trkpt>
      <trkpt lat="49.64614" lon="4.86711">
        <ele>165</ele>
        <time>2014-08-23T15:01:55Z</time>
      </trkpt>
      <trkpt lat="49.64606" lon="4.86733">
        <ele>162</ele>
        <time>2014-08-23T15:02:00Z</time>
      </trkpt>
      <trkpt lat="49.64619" lon="4.86763">
        <ele>162</ele>
        <time>2014-08-23T15:02:06Z</time>
      </trkpt>
      <trkpt lat="49.64627" lon="4.86784">
        <ele>161</ele>
        <time>2014-08-23T15:02:11Z</time>
      </trkpt>
      <trkpt lat="49.64622" lon="4.8681">
        <ele>161</ele>
        <time>2014-08-23T15:02:17Z</time>
      </trkpt>
      <trkpt lat="49.64608" lon="4.86828">
        <ele>159</ele>
        <time>2014-08-23T15:02:23Z</time>
      </trkpt>
      <trkpt lat="49.64595" lon="4.86848">
        <ele>158</ele>
        <time>2014-08-23T15:02:29Z</time>
      </trkpt>
      <trkpt lat="49.64581" lon="4.86867">
        <ele>157</ele>
        <time>2014-08-23T15:02:35Z</time>
      </trkpt>
      <trkpt lat="49.64567" lon="4.86887">
        <ele>155</ele>
        <time>2014-08-23T15:02:42Z</time>
      </trkpt>
      <trkpt lat="49.64555" lon="4.8691">
        <ele>154</ele>
        <time>2014-08-23T15:02:47Z</time>
      </trkpt>
      <trkpt lat="49.64543" lon="4.86932">
        <ele>153</ele>
        <time>2014-08-23T15:02:53Z</time>
      </trkpt>
      <trkpt lat="49.64532" lon="4.86956">
        <ele>153</ele>
        <time>2014-08-23T15:02:59Z</time>
      </trkpt>
      <trkpt lat="49.64518" lon="4.86988">
        <ele>154</ele>
        <time>2014-08-23T15:03:08Z</time>
      </trkpt>
      <trkpt lat="49.6451" lon="4.87002">
        <ele>154</ele>
        <time>2014-08-23T15:03:11Z</time>
      </trkpt>
      <trkpt lat="49.6449" lon="4.87029">
        <ele>154</ele>
        <time>2014-08-23T15:03:21Z</time>
      </trkpt>
      <trkpt lat="49.64482" lon="4.87037">
        <ele>154</ele>
        <time>2014-08-23T15:03:24Z</time>
      </trkpt>
      <trkpt lat="49.64466" lon="4.87052">
        <ele>154</ele>
        <time>2014-08-23T15:03:30Z</time>
      </trkpt>
      <trkpt lat="49.64448" lon="4.87073">
        <ele>153</ele>
        <time>2014-08-23T15:03:37Z</time>
      </trkpt>
      <trkpt lat="49.64436" lon="4.87088">
        <ele>153</ele>
        <time>2014-08-23T15:03:42Z</time>
      </trkpt>
      <trkpt lat="49.64417" lon="4.87114">
        <ele>152</ele>
        <time>2014-08-23T15:03:50Z</time>
      </trkpt>
      <trkpt lat="49.64407" lon="4.87127">
        <ele>153</ele>
        <time>2014-08-23T15:03:54Z</time>
      </trkpt>
      <trkpt lat="49.6439" lon="4.87149">
        <ele>154</ele>
        <time>2014-08-23T15:04:01Z</time>
      </trkpt>
      <trkpt lat="49.64379" lon="4.87167">
        <ele>154</ele>
        <time>2014-08-23T15:04:06Z</time>
      </trkpt>
      <trkpt lat="49.64379" lon="4.87206">
        <ele>154</ele>
        <time>2014-08-23T15:04:14Z</time>
      </trkpt>
      <trkpt lat="49.64387" lon="4.87223">
        <ele>154</ele>
        <time>2014-08-23T15:04:18Z</time>
      </trkpt>
      <trkpt lat="49.64403" lon="4.87269">
        <ele>156</ele>
        <time>2014-08-23T15:04:28Z</time>
      </trkpt>
      <trkpt lat="49.64404" lon="4.87289">
        <ele>154</ele>
        <time>2014-08-23T15:04:32Z</time>
      </trkpt>
      <trkpt lat="49.64379" lon="4.87318">
        <ele>159</ele>
        <time>2014-08-23T15:04:41Z</time>
      </trkpt>
      <trkpt lat="49.64377" lon="4.87321">
        <ele>159</ele>
        <time>2014-08-23T15:04:41Z</time>
      </trkpt>
      <trkpt lat="49.64362" lon="4.87342">
        <ele>158</ele>
        <time>2014-08-23T15:04:48Z</time>
      </trkpt>
      <trkpt lat="49.64345" lon="4.87367">
        <ele>159</ele>
        <time>2014-08-23T15:04:55Z</time>
      </trkpt>
      <trkpt lat="49.64337" lon="4.8738">
        <ele>160</ele>
        <time>2014-08-23T15:05:00Z</time>
      </trkpt>
      <trkpt lat="49.64327" lon="4.8741">
        <ele>162</ele>
        <time>2014-08-23T15:05:07Z</time>
      </trkpt>
      <trkpt lat="49.64326" lon="4.87427">
        <ele>162</ele>
        <time>2014-08-23T15:05:12Z</time>
      </trkpt>
      <trkpt lat="49.64334" lon="4.87457">
        <ele>166</ele>
        <time>2014-08-23T15:05:20Z</time>
      </trkpt>
      <trkpt lat="49.64342" lon="4.87474">
        <ele>166</ele>
        <time>2014-08-23T15:05:25Z</time>
      </trkpt>
      <trkpt lat="49.64361" lon="4.87496">
        <ele>165</ele>
        <time>2014-08-23T15:05:34Z</time>
      </trkpt>
      <trkpt lat="49.64365" lon="4.87502">
        <ele>164</ele>
        <time>2014-08-23T15:05:38Z</time>
      </trkpt>
      <trkpt lat="49.64365" lon="4.87505">
        <ele>165</ele>
        <time>2014-08-23T15:05:46Z</time>
      </trkpt>
    </trkseg>
  </trk>
</gpx>